<?xml version='1.0' encoding='UTF-8'?><gpx version="1.1" creator="JPX - https://github.com/jenetics/jpx" xmlns="http://www.topografix.com/GPX/1/1"><trk><trkseg><trkpt lat="49.06067298639095" lon="2.504793984375942"><ele>118.0</ele><time>2026-03-31T16:29:13Z</time></trkpt><trkpt lat="49.06063194051733" lon="2.504656320183481"><ele>118.00000000000001</ele><time>2026-03-31T16:29:15Z</time></trkpt><trkpt lat="49.06054344963913" lon="2.504562843947867"><ele>118.00000000000001</ele><time>2026-03-31T16:29:17Z</time></trkpt><trkpt lat="49.06049656132337" lon="2.5044000564260678"><ele>118.0</ele><time>2026-03-31T16:29:19Z</time></trkpt><trkpt lat="49.060414303985354" lon="2.5042831283385114"><ele>118.0</ele><time>2026-03-31T16:29:21Z</time></trkpt><trkpt lat="49.06035445113667" lon="2.5041719835477667"><ele>117.80000000000001</ele><time>2026-03-31T16:29:23Z</time></trkpt><trkpt lat="49.06029023181604" lon="2.5040552847080733"><ele>117.60000000000001</ele><time>2026-03-31T16:29:25Z</time></trkpt><trkpt lat="49.06021555000034" lon="2.5039485490888334"><ele>117.39999999999999</ele><time>2026-03-31T16:29:27Z</time></trkpt><trkpt lat="49.06010550757443" lon="2.5039179697899203"><ele>117.19999999999999</ele><time>2026-03-31T16:29:29Z</time></trkpt><trkpt lat="49.06000442703638" lon="2.503895552263975"><ele>117.0</ele><time>2026-03-31T16:29:31Z</time></trkpt><trkpt lat="49.05990323989048" lon="2.503906739999646"><ele>116.6</ele><time>2026-03-31T16:29:33Z</time></trkpt><trkpt lat="49.05979857624482" lon="2.5039049637319692"><ele>116.19999999999999</ele><time>2026-03-31T16:29:35Z</time></trkpt><trkpt lat="49.05969863720854" lon="2.5038874429763607"><ele>115.8</ele><time>2026-03-31T16:29:37Z</time></trkpt><trkpt lat="49.05960887354218" lon="2.5038391475252864"><ele>115.4</ele><time>2026-03-31T16:29:39Z</time></trkpt><trkpt lat="49.0596185217463" lon="2.5037278844749924"><ele>115.0</ele><time>2026-03-31T16:29:40Z</time></trkpt><trkpt lat="49.05959920152277" lon="2.5035827420587924"><ele>115.0</ele><time>2026-03-31T16:29:42Z</time></trkpt><trkpt lat="49.05959024720992" lon="2.5034500805084545"><ele>115.0</ele><time>2026-03-31T16:29:44Z</time></trkpt><trkpt lat="49.059587154393924" lon="2.5033501346040286"><ele>115.0</ele><time>2026-03-31T16:29:46Z</time></trkpt><trkpt lat="49.0595820054105" lon="2.50323960757505"><ele>115.0</ele><time>2026-03-31T16:29:52Z</time></trkpt><trkpt lat="49.05946428472733" lon="2.5031526659698566"><ele>115.0</ele><time>2026-03-31T16:29:55Z</time></trkpt><trkpt lat="49.059357906359196" lon="2.5030900421117157"><ele>115.0</ele><time>2026-03-31T16:29:57Z</time></trkpt><trkpt lat="49.05926879364956" lon="2.5030197688042835"><ele>115.0</ele><time>2026-03-31T16:29:59Z</time></trkpt><trkpt lat="49.0591693443561" lon="2.502922027175455"><ele>115.0</ele><time>2026-03-31T16:30:01Z</time></trkpt><trkpt lat="49.05910090816965" lon="2.5028542138618084"><ele>115.0</ele><time>2026-03-31T16:30:02Z</time></trkpt><trkpt lat="49.059022121587944" lon="2.5027641429310057"><ele>115.0</ele><time>2026-03-31T16:30:03Z</time></trkpt><trkpt lat="49.05894531554132" lon="2.5026801304146558"><ele>115.0</ele><time>2026-03-31T16:30:04Z</time></trkpt><trkpt lat="49.05886872307394" lon="2.5025999571403434"><ele>115.0</ele><time>2026-03-31T16:30:05Z</time></trkpt><trkpt lat="49.058789745178075" lon="2.5025171620626265"><ele>115.0</ele><time>2026-03-31T16:30:06Z</time></trkpt><trkpt lat="49.0587176507646" lon="2.5024417651492907"><ele>115.0</ele><time>2026-03-31T16:30:07Z</time></trkpt><trkpt lat="49.05864779832022" lon="2.502367573760683"><ele>115.0</ele><time>2026-03-31T16:30:08Z</time></trkpt><trkpt lat="49.05857318035345" lon="2.5022915555859404"><ele>115.0</ele><time>2026-03-31T16:30:09Z</time></trkpt><trkpt lat="49.05849793187697" lon="2.502212897991945"><ele>115.0</ele><time>2026-03-31T16:30:10Z</time></trkpt><trkpt lat="49.05842615235878" lon="2.5021356210598027"><ele>115.0</ele><time>2026-03-31T16:30:11Z</time></trkpt><trkpt lat="49.05836904435018" lon="2.5020719769814788"><ele>115.0</ele><time>2026-03-31T16:30:12Z</time></trkpt><trkpt lat="49.05827183745226" lon="2.501984223678844"><ele>115.0</ele><time>2026-03-31T16:30:14Z</time></trkpt><trkpt lat="49.058181733883806" lon="2.5018798935036086"><ele>114.83333333333334</ele><time>2026-03-31T16:30:16Z</time></trkpt><trkpt lat="49.05812867263561" lon="2.5018220439410666"><ele>114.66666666666667</ele><time>2026-03-31T16:30:17Z</time></trkpt><trkpt lat="49.058073516797485" lon="2.5017643894297965"><ele>114.5</ele><time>2026-03-31T16:30:18Z</time></trkpt><trkpt lat="49.05796636662765" lon="2.5016545459882793"><ele>114.33333333333334</ele><time>2026-03-31T16:30:20Z</time></trkpt><trkpt lat="49.05791087831476" lon="2.5016017381966216"><ele>114.16666666666667</ele><time>2026-03-31T16:30:21Z</time></trkpt><trkpt lat="49.05781099841975" lon="2.501493486861002"><ele>114.0</ele><time>2026-03-31T16:30:23Z</time></trkpt><trkpt lat="49.057756762887536" lon="2.5013510175957485"><ele>114.0</ele><time>2026-03-31T16:30:25Z</time></trkpt><trkpt lat="49.05771188019245" lon="2.5011762912166216"><ele>114.0</ele><time>2026-03-31T16:30:27Z</time></trkpt><trkpt lat="49.05769388892737" lon="2.501083091283728"><ele>114.0</ele><time>2026-03-31T16:30:28Z</time></trkpt><trkpt lat="49.057648441376585" lon="2.5009085354253933"><ele>114.0</ele><time>2026-03-31T16:30:30Z</time></trkpt><trkpt lat="49.057614660814735" lon="2.5007316926051253"><ele>114.0</ele><time>2026-03-31T16:30:32Z</time></trkpt><trkpt lat="49.05755224960822" lon="2.500622293906922"><ele>114.2</ele><time>2026-03-31T16:30:34Z</time></trkpt><trkpt lat="49.05743749077537" lon="2.5006077705766967"><ele>114.4</ele><time>2026-03-31T16:30:36Z</time></trkpt><trkpt lat="49.05732762061811" lon="2.5006608185180004"><ele>114.6</ele><time>2026-03-31T16:30:38Z</time></trkpt><trkpt lat="49.057260333690834" lon="2.5006754794089847"><ele>114.8</ele><time>2026-03-31T16:30:39Z</time></trkpt><trkpt lat="49.05719013666549" lon="2.5007041223569964"><ele>115.0</ele><time>2026-03-31T16:30:40Z</time></trkpt><trkpt lat="49.057079427241405" lon="2.500741784626857"><ele>115.0</ele><time>2026-03-31T16:30:41Z</time></trkpt><trkpt lat="49.056969890400836" lon="2.5007751079395084"><ele>115.0</ele><time>2026-03-31T16:30:42Z</time></trkpt><trkpt lat="49.05685965460955" lon="2.50080307613834"><ele>115.0</ele><time>2026-03-31T16:30:43Z</time></trkpt><trkpt lat="49.05675503406182" lon="2.5008281204438494"><ele>115.0</ele><time>2026-03-31T16:30:44Z</time></trkpt><trkpt lat="49.056650107970036" lon="2.5008652303665024"><ele>115.0</ele><time>2026-03-31T16:30:45Z</time></trkpt><trkpt lat="49.05655638593136" lon="2.5008819414539163"><ele>115.50000000000001</ele><time>2026-03-31T16:30:46Z</time></trkpt><trkpt lat="49.056462937221745" lon="2.500902805095039"><ele>116.0</ele><time>2026-03-31T16:30:47Z</time></trkpt><trkpt lat="49.05639188778251" lon="2.5009197301552533"><ele>116.5</ele><time>2026-03-31T16:30:48Z</time></trkpt><trkpt lat="49.0563248044507" lon="2.5009407799462555"><ele>117.0</ele><time>2026-03-31T16:30:49Z</time></trkpt><trkpt lat="49.05625406077967" lon="2.5009602757032665"><ele>117.50000000000001</ele><time>2026-03-31T16:30:50Z</time></trkpt><trkpt lat="49.056174341705436" lon="2.5009900277527746"><ele>118.0</ele><time>2026-03-31T16:30:51Z</time></trkpt><trkpt lat="49.05608768007306" lon="2.501018704909427"><ele>118.0</ele><time>2026-03-31T16:30:52Z</time></trkpt><trkpt lat="49.055998779454505" lon="2.501045674260499"><ele>118.00000000000001</ele><time>2026-03-31T16:30:53Z</time></trkpt><trkpt lat="49.05590616599806" lon="2.5010685447230636"><ele>118.00000000000001</ele><time>2026-03-31T16:30:54Z</time></trkpt><trkpt lat="49.055814001753276" lon="2.5010926115542187"><ele>118.0</ele><time>2026-03-31T16:30:55Z</time></trkpt><trkpt lat="49.05572414495301" lon="2.501117178468458"><ele>118.0</ele><time>2026-03-31T16:30:56Z</time></trkpt><trkpt lat="49.0556308830508" lon="2.501146804904583"><ele>118.4</ele><time>2026-03-31T16:30:57Z</time></trkpt><trkpt lat="49.05553893740714" lon="2.501170529001425"><ele>118.80000000000001</ele><time>2026-03-31T16:30:58Z</time></trkpt><trkpt lat="49.0554472116142" lon="2.5011934458553937"><ele>119.2</ele><time>2026-03-31T16:30:59Z</time></trkpt><trkpt lat="49.05536242570726" lon="2.501220331806118"><ele>119.6</ele><time>2026-03-31T16:31:00Z</time></trkpt><trkpt lat="49.05527288019198" lon="2.5012436136470155"><ele>120.0</ele><time>2026-03-31T16:31:01Z</time></trkpt><trkpt lat="49.05517607177651" lon="2.501263800058589"><ele>120.2</ele><time>2026-03-31T16:31:02.001Z</time></trkpt><trkpt lat="49.05508832118864" lon="2.5012834787909464"><ele>120.4</ele><time>2026-03-31T16:31:03.001Z</time></trkpt><trkpt lat="49.05500168952368" lon="2.501315530856805"><ele>120.6</ele><time>2026-03-31T16:31:04.001Z</time></trkpt><trkpt lat="49.054910777916376" lon="2.501338570243133"><ele>120.8</ele><time>2026-03-31T16:31:05.001Z</time></trkpt><trkpt lat="49.05481325536193" lon="2.501361446935191"><ele>121.0</ele><time>2026-03-31T16:31:06.001Z</time></trkpt><trkpt lat="49.0547072225388" lon="2.501394934510781"><ele>120.4</ele><time>2026-03-31T16:31:07.001Z</time></trkpt><trkpt lat="49.0546121325996" lon="2.5014240609657534"><ele>119.8</ele><time>2026-03-31T16:31:08.001Z</time></trkpt><trkpt lat="49.05451174378571" lon="2.501443098299899"><ele>119.20000000000002</ele><time>2026-03-31T16:31:09.001Z</time></trkpt><trkpt lat="49.05440878099374" lon="2.5014754635323677"><ele>118.60000000000001</ele><time>2026-03-31T16:31:10.001Z</time></trkpt><trkpt lat="49.05430527779469" lon="2.5015075639889313"><ele>118.0</ele><time>2026-03-31T16:31:11.001Z</time></trkpt><trkpt lat="49.05420544417941" lon="2.5015333860837536"><ele>117.0</ele><time>2026-03-31T16:31:12.001Z</time></trkpt><trkpt lat="49.05410323183766" lon="2.501561669615385"><ele>116.00000000000001</ele><time>2026-03-31T16:31:13.001Z</time></trkpt><trkpt lat="49.05400207939463" lon="2.501586647572255"><ele>115.00000000000001</ele><time>2026-03-31T16:31:14.001Z</time></trkpt><trkpt lat="49.0539029273821" lon="2.5016114619959438"><ele>114.0</ele><time>2026-03-31T16:31:15.001Z</time></trkpt><trkpt lat="49.05380044026112" lon="2.501637092324093"><ele>113.0</ele><time>2026-03-31T16:31:16.001Z</time></trkpt><trkpt lat="49.053703337163874" lon="2.501671039593706"><ele>112.99999999999999</ele><time>2026-03-31T16:31:17Z</time></trkpt><trkpt lat="49.053615358156705" lon="2.5016980896710406"><ele>113.0</ele><time>2026-03-31T16:31:18Z</time></trkpt><trkpt lat="49.05352730824639" lon="2.50171902856088"><ele>113.0</ele><time>2026-03-31T16:31:19Z</time></trkpt><trkpt lat="49.05343841790688" lon="2.5017467466242826"><ele>113.0</ele><time>2026-03-31T16:31:20Z</time></trkpt><trkpt lat="49.05334754172307" lon="2.501767818823734"><ele>112.99999999999999</ele><time>2026-03-31T16:31:21Z</time></trkpt><trkpt lat="49.05326352287202" lon="2.501791439208984"><ele>113.0</ele><time>2026-03-31T16:31:22Z</time></trkpt><trkpt lat="49.053189394840345" lon="2.5018071324353834"><ele>112.49999999999999</ele><time>2026-03-31T16:31:23Z</time></trkpt><trkpt lat="49.0531184948332" lon="2.501791588258137"><ele>112.0</ele><time>2026-03-31T16:31:24Z</time></trkpt><trkpt lat="49.05305783769107" lon="2.501747133983108"><ele>111.5</ele><time>2026-03-31T16:31:25Z</time></trkpt><trkpt lat="49.052974955748425" lon="2.5016107616358996"><ele>111.0</ele><time>2026-03-31T16:31:27Z</time></trkpt><trkpt lat="49.052929955615994" lon="2.5015291679870852"><ele>110.49999999999999</ele><time>2026-03-31T16:31:28Z</time></trkpt><trkpt lat="49.05288940322153" lon="2.501439777462942"><ele>110.0</ele><time>2026-03-31T16:31:29Z</time></trkpt><trkpt lat="49.0528683635672" lon="2.5013418188272083"><ele>109.99999999999999</ele><time>2026-03-31T16:31:30Z</time></trkpt><trkpt lat="49.05286930757461" lon="2.5012382762869563"><ele>110.0</ele><time>2026-03-31T16:31:31Z</time></trkpt><trkpt lat="49.05286501827935" lon="2.5011242105590563"><ele>110.0</ele><time>2026-03-31T16:31:32Z</time></trkpt><trkpt lat="49.052851784893235" lon="2.5010012881674717"><ele>110.0</ele><time>2026-03-31T16:31:33Z</time></trkpt><trkpt lat="49.05283479484562" lon="2.5008863939943473"><ele>110.0</ele><time>2026-03-31T16:31:34Z</time></trkpt><trkpt lat="49.052819648867036" lon="2.5007889532645957"><ele>109.99999999999999</ele><time>2026-03-31T16:31:35Z</time></trkpt><trkpt lat="49.05281229724007" lon="2.5006764035814553"><ele>110.0</ele><time>2026-03-31T16:31:36Z</time></trkpt><trkpt lat="49.052760425952556" lon="2.5005725366718323"><ele>109.99999999999999</ele><time>2026-03-31T16:31:37Z</time></trkpt><trkpt lat="49.05269722519707" lon="2.5004867383594336"><ele>110.0</ele><time>2026-03-31T16:31:38Z</time></trkpt><trkpt lat="49.052643788159486" lon="2.5003801219409696"><ele>110.0</ele><time>2026-03-31T16:31:39Z</time></trkpt><trkpt lat="49.052602698376425" lon="2.5002692933836244"><ele>110.0</ele><time>2026-03-31T16:31:40Z</time></trkpt><trkpt lat="49.05255153020223" lon="2.5001740590358645"><ele>109.99999999999999</ele><time>2026-03-31T16:31:41Z</time></trkpt><trkpt lat="49.052494408830846" lon="2.500066767012641"><ele>110.0</ele><time>2026-03-31T16:31:42Z</time></trkpt><trkpt lat="49.05243966458145" lon="2.499963526920065"><ele>109.99999999999999</ele><time>2026-03-31T16:31:43Z</time></trkpt><trkpt lat="49.05238204789169" lon="2.4998534713090392"><ele>110.0</ele><time>2026-03-31T16:31:44Z</time></trkpt><trkpt lat="49.05233152770145" lon="2.499756468617456"><ele>110.0</ele><time>2026-03-31T16:31:45Z</time></trkpt><trkpt lat="49.05228654266172" lon="2.499669872807285"><ele>110.0</ele><time>2026-03-31T16:31:46Z</time></trkpt><trkpt lat="49.05224222666564" lon="2.4995716026131922"><ele>109.99999999999999</ele><time>2026-03-31T16:31:47Z</time></trkpt><trkpt lat="49.052201302058116" lon="2.4994782683561305"><ele>110.0</ele><time>2026-03-31T16:31:48Z</time></trkpt><trkpt lat="49.05215677735086" lon="2.4993767950592356"><ele>110.2</ele><time>2026-03-31T16:31:49Z</time></trkpt><trkpt lat="49.052119122514874" lon="2.4992909784223536"><ele>110.4</ele><time>2026-03-31T16:31:50Z</time></trkpt><trkpt lat="49.05206475478228" lon="2.499167071212689"><ele>110.6</ele><time>2026-03-31T16:31:52Z</time></trkpt><trkpt lat="49.05188770947792" lon="2.499304128601452"><ele>110.8</ele><time>2026-03-31T16:31:53Z</time></trkpt><trkpt lat="49.05181317133877" lon="2.4993370820742693"><ele>111.0</ele><time>2026-03-31T16:31:54Z</time></trkpt><trkpt lat="49.051731195433476" lon="2.499353385948517"><ele>111.0</ele><time>2026-03-31T16:31:55Z</time></trkpt><trkpt lat="49.05164603004354" lon="2.4993603521927685"><ele>111.0</ele><time>2026-03-31T16:31:56Z</time></trkpt><trkpt lat="49.051560903726276" lon="2.49936842124567"><ele>111.0</ele><time>2026-03-31T16:31:57Z</time></trkpt><trkpt lat="49.051480489809585" lon="2.4993745855516347"><ele>111.0</ele><time>2026-03-31T16:31:58Z</time></trkpt><trkpt lat="49.05141268487283" lon="2.499364038710426"><ele>111.0</ele><time>2026-03-31T16:31:59Z</time></trkpt><trkpt lat="49.05133142763676" lon="2.499395240359398"><ele>111.0</ele><time>2026-03-31T16:32:00Z</time></trkpt><trkpt lat="49.05125160846472" lon="2.4993619081606133"><ele>110.19999999999999</ele><time>2026-03-31T16:32:01Z</time></trkpt><trkpt lat="49.05117484039074" lon="2.4993487894039905"><ele>109.39999999999999</ele><time>2026-03-31T16:32:02Z</time></trkpt><trkpt lat="49.05109830270293" lon="2.499332789285252"><ele>108.6</ele><time>2026-03-31T16:32:03Z</time></trkpt><trkpt lat="49.05100584834964" lon="2.4993901311413853"><ele>107.8</ele><time>2026-03-31T16:32:04Z</time></trkpt><trkpt lat="49.05091139823652" lon="2.499441031895578"><ele>107.0</ele><time>2026-03-31T16:32:05Z</time></trkpt><trkpt lat="49.050815311185275" lon="2.499510135460465"><ele>106.6</ele><time>2026-03-31T16:32:06Z</time></trkpt><trkpt lat="49.05071407824337" lon="2.4995764831600815"><ele>106.19999999999999</ele><time>2026-03-31T16:32:07Z</time></trkpt><trkpt lat="49.050620304531755" lon="2.499628924812885"><ele>105.8</ele><time>2026-03-31T16:32:08Z</time></trkpt><trkpt lat="49.05052751944259" lon="2.4996803279998203"><ele>105.4</ele><time>2026-03-31T16:32:09Z</time></trkpt><trkpt lat="49.05043876517172" lon="2.4997309175527818"><ele>105.0</ele><time>2026-03-31T16:32:10Z</time></trkpt><trkpt lat="49.05034754744941" lon="2.499796734966188"><ele>104.8</ele><time>2026-03-31T16:32:11Z</time></trkpt><trkpt lat="49.05025200441317" lon="2.499859761291566"><ele>104.6</ele><time>2026-03-31T16:32:12Z</time></trkpt><trkpt lat="49.050156819609555" lon="2.499916283007669"><ele>104.4</ele><time>2026-03-31T16:32:13Z</time></trkpt><trkpt lat="49.05005255029924" lon="2.499942363427618"><ele>104.2</ele><time>2026-03-31T16:32:14Z</time></trkpt><trkpt lat="49.04995960883101" lon="2.5000181914887882"><ele>104.0</ele><time>2026-03-31T16:32:15Z</time></trkpt><trkpt lat="49.04987132576345" lon="2.5000657254331298"><ele>104.0</ele><time>2026-03-31T16:32:16Z</time></trkpt><trkpt lat="49.049791639404035" lon="2.5001090512011146"><ele>104.0</ele><time>2026-03-31T16:32:17Z</time></trkpt><trkpt lat="49.049704674883706" lon="2.500136665792124"><ele>104.0</ele><time>2026-03-31T16:32:18Z</time></trkpt><trkpt lat="49.04963707537121" lon="2.5001755080867176"><ele>104.0</ele><time>2026-03-31T16:32:19Z</time></trkpt><trkpt lat="49.0495353289737" lon="2.5002541377982794"><ele>104.0</ele><time>2026-03-31T16:32:21Z</time></trkpt><trkpt lat="49.04944491232339" lon="2.5002786393394874"><ele>104.0</ele><time>2026-03-31T16:32:23Z</time></trkpt><trkpt lat="49.049331525395154" lon="2.5001443543880737"><ele>104.0</ele><time>2026-03-31T16:32:25Z</time></trkpt><trkpt lat="49.04927410178643" lon="2.500060019052076"><ele>104.0</ele><time>2026-03-31T16:32:26Z</time></trkpt><trkpt lat="49.04920762496844" lon="2.4999645257082426"><ele>104.0</ele><time>2026-03-31T16:32:27Z</time></trkpt><trkpt lat="49.04913800266245" lon="2.499854996620079"><ele>104.0</ele><time>2026-03-31T16:32:28Z</time></trkpt><trkpt lat="49.0490747535107" lon="2.4997434364579614"><ele>103.6</ele><time>2026-03-31T16:32:29Z</time></trkpt><trkpt lat="49.04901704905884" lon="2.4996090662877433"><ele>103.2</ele><time>2026-03-31T16:32:30Z</time></trkpt><trkpt lat="49.04895770689373" lon="2.499472320737516"><ele>102.8</ele><time>2026-03-31T16:32:31Z</time></trkpt><trkpt lat="49.04890192210406" lon="2.499341073210538"><ele>102.39999999999999</ele><time>2026-03-31T16:32:32Z</time></trkpt><trkpt lat="49.04885456766385" lon="2.4992142168459486"><ele>102.0</ele><time>2026-03-31T16:32:33Z</time></trkpt><trkpt lat="49.048806982539304" lon="2.4990952944154396"><ele>102.0</ele><time>2026-03-31T16:32:34Z</time></trkpt><trkpt lat="49.04875685289008" lon="2.498970373659144"><ele>102.0</ele><time>2026-03-31T16:32:35Z</time></trkpt><trkpt lat="49.0487045128376" lon="2.498836054009523"><ele>102.0</ele><time>2026-03-31T16:32:36Z</time></trkpt><trkpt lat="49.048646029595005" lon="2.498698120111331"><ele>102.0</ele><time>2026-03-31T16:32:37Z</time></trkpt><trkpt lat="49.048582283831394" lon="2.4985597554513297"><ele>102.0</ele><time>2026-03-31T16:32:38Z</time></trkpt><trkpt lat="49.04852017709955" lon="2.4984181167638733"><ele>102.19999999999999</ele><time>2026-03-31T16:32:39Z</time></trkpt><trkpt lat="49.04845764547809" lon="2.498291108647944"><ele>102.4</ele><time>2026-03-31T16:32:40Z</time></trkpt><trkpt lat="49.048410695123195" lon="2.4981484748035916"><ele>102.6</ele><time>2026-03-31T16:32:41Z</time></trkpt><trkpt lat="49.04835404807398" lon="2.498006942713467"><ele>102.80000000000001</ele><time>2026-03-31T16:32:42Z</time></trkpt><trkpt lat="49.04829433718403" lon="2.497861589275513"><ele>103.0</ele><time>2026-03-31T16:32:43Z</time></trkpt><trkpt lat="49.04823212770924" lon="2.4977280951103507"><ele>103.0</ele><time>2026-03-31T16:32:44Z</time></trkpt><trkpt lat="49.04815541997705" lon="2.497610158319393"><ele>103.0</ele><time>2026-03-31T16:32:45Z</time></trkpt><trkpt lat="49.04809108988553" lon="2.4974887520662024"><ele>103.0</ele><time>2026-03-31T16:32:46Z</time></trkpt><trkpt lat="49.04802730319866" lon="2.4973684583108757"><ele>103.0</ele><time>2026-03-31T16:32:47Z</time></trkpt><trkpt lat="49.04796661440039" lon="2.497238801326382"><ele>103.0</ele><time>2026-03-31T16:32:48Z</time></trkpt><trkpt lat="49.047902094937854" lon="2.4971095627893964"><ele>102.80000000000001</ele><time>2026-03-31T16:32:49Z</time></trkpt><trkpt lat="49.04783760131785" lon="2.4969859393309273"><ele>102.6</ele><time>2026-03-31T16:32:50Z</time></trkpt><trkpt lat="49.047771396094745" lon="2.496869869608563"><ele>102.4</ele><time>2026-03-31T16:32:51Z</time></trkpt><trkpt lat="49.047699613461965" lon="2.4967561873038093"><ele>102.19999999999999</ele><time>2026-03-31T16:32:52Z</time></trkpt><trkpt lat="49.047643738863094" lon="2.4966155578999563"><ele>102.0</ele><time>2026-03-31T16:32:53Z</time></trkpt><trkpt lat="49.0475787648394" lon="2.4964911012455056"><ele>102.0</ele><time>2026-03-31T16:32:53.999Z</time></trkpt><trkpt lat="49.047516680987925" lon="2.496371122664738"><ele>102.0</ele><time>2026-03-31T16:32:54.999Z</time></trkpt><trkpt lat="49.04745063422726" lon="2.4962480679476404"><ele>102.0</ele><time>2026-03-31T16:32:55.999Z</time></trkpt><trkpt lat="49.047365254906225" lon="2.4961389228104682"><ele>102.0</ele><time>2026-03-31T16:32:56.999Z</time></trkpt><trkpt lat="49.04728444296722" lon="2.4960039787172046"><ele>102.0</ele><time>2026-03-31T16:32:57.999Z</time></trkpt><trkpt lat="49.04719573748656" lon="2.495879377275028"><ele>102.25</ele><time>2026-03-31T16:32:58.999Z</time></trkpt><trkpt lat="49.04710601422707" lon="2.495756824863671"><ele>102.5</ele><time>2026-03-31T16:32:59.999Z</time></trkpt><trkpt lat="49.0470201458174" lon="2.495639242986099"><ele>102.75</ele><time>2026-03-31T16:33:00.999Z</time></trkpt><trkpt lat="49.04693541510904" lon="2.495518459882411"><ele>103.0</ele><time>2026-03-31T16:33:01.999Z</time></trkpt><trkpt lat="49.04684524147836" lon="2.495400110499497"><ele>102.5</ele><time>2026-03-31T16:33:02.999Z</time></trkpt><trkpt lat="49.04675948973741" lon="2.4952875477517598"><ele>102.0</ele><time>2026-03-31T16:33:03.999Z</time></trkpt><trkpt lat="49.04667558395718" lon="2.4951737674799674"><ele>101.5</ele><time>2026-03-31T16:33:04.999Z</time></trkpt><trkpt lat="49.04658958175612" lon="2.495057108005394"><ele>101.0</ele><time>2026-03-31T16:33:05.999Z</time></trkpt><trkpt lat="49.04649862479285" lon="2.494942512492194"><ele>100.0</ele><time>2026-03-31T16:33:06.999Z</time></trkpt><trkpt lat="49.04640848474332" lon="2.4948324252883287"><ele>99.0</ele><time>2026-03-31T16:33:08.001Z</time></trkpt><trkpt lat="49.04632078364403" lon="2.494719185488683"><ele>98.0</ele><time>2026-03-31T16:33:09.001Z</time></trkpt><trkpt lat="49.04624166464812" lon="2.494608668202243"><ele>97.0</ele><time>2026-03-31T16:33:10.001Z</time></trkpt><trkpt lat="49.046161189178434" lon="2.494507022217393"><ele>96.0</ele><time>2026-03-31T16:33:11.001Z</time></trkpt><trkpt lat="49.046084805535756" lon="2.4944008165466203"><ele>95.0</ele><time>2026-03-31T16:33:12.001Z</time></trkpt><trkpt lat="49.046011482485355" lon="2.494299081922099"><ele>94.0</ele><time>2026-03-31T16:33:13.001Z</time></trkpt><trkpt lat="49.04593628062861" lon="2.494193461601498"><ele>93.0</ele><time>2026-03-31T16:33:14.001Z</time></trkpt><trkpt lat="49.04590829799339" lon="2.494058673274792"><ele>92.0</ele><time>2026-03-31T16:33:15.001Z</time></trkpt><trkpt lat="49.0458465530697" lon="2.493986178380659"><ele>91.0</ele><time>2026-03-31T16:33:16.001Z</time></trkpt><trkpt lat="49.04578289777393" lon="2.493950408496328"><ele>90.0</ele><time>2026-03-31T16:33:17.001Z</time></trkpt><trkpt lat="49.045705760640836" lon="2.493958022841223"><ele>89.0</ele><time>2026-03-31T16:33:18.001Z</time></trkpt><trkpt lat="49.04564304735473" lon="2.494019904685428"><ele>88.0</ele><time>2026-03-31T16:33:19.001Z</time></trkpt><trkpt lat="49.04560488042197" lon="2.494121302440958"><ele>87.0</ele><time>2026-03-31T16:33:20.001Z</time></trkpt><trkpt lat="49.045574555195756" lon="2.494226755357124"><ele>86.0</ele><time>2026-03-31T16:33:21.001Z</time></trkpt><trkpt lat="49.0456063282784" lon="2.4943480582176694"><ele>85.0</ele><time>2026-03-31T16:33:22.001Z</time></trkpt><trkpt lat="49.04564290237363" lon="2.494442568210424"><ele>84.0</ele><time>2026-03-31T16:33:23.001Z</time></trkpt><trkpt lat="49.04567863456996" lon="2.4945609944419207"><ele>84.75</ele><time>2026-03-31T16:33:24.001Z</time></trkpt><trkpt lat="49.04569303140588" lon="2.4947212393249854"><ele>85.5</ele><time>2026-03-31T16:33:25.001Z</time></trkpt><trkpt lat="49.045707902969376" lon="2.494875508719957"><ele>86.25</ele><time>2026-03-31T16:33:26.001Z</time></trkpt><trkpt lat="49.04565043263643" lon="2.4950587577695997"><ele>87.0</ele><time>2026-03-31T16:33:27Z</time></trkpt><trkpt lat="49.04561524100517" lon="2.49524854483845"><ele>88.25</ele><time>2026-03-31T16:33:28Z</time></trkpt><trkpt lat="49.045566223770756" lon="2.495433253811726"><ele>89.5</ele><time>2026-03-31T16:33:29Z</time></trkpt><trkpt lat="49.04550743620834" lon="2.4956104864584656"><ele>90.75</ele><time>2026-03-31T16:33:30Z</time></trkpt><trkpt lat="49.045446312715626" lon="2.495778361625753"><ele>92.0</ele><time>2026-03-31T16:33:31Z</time></trkpt><trkpt lat="49.04538015453453" lon="2.4959446665404665"><ele>92.0</ele><time>2026-03-31T16:33:32Z</time></trkpt><trkpt lat="49.04532039865053" lon="2.4961025973865367"><ele>92.0</ele><time>2026-03-31T16:33:33Z</time></trkpt><trkpt lat="49.045246450360494" lon="2.496239085542475"><ele>92.0</ele><time>2026-03-31T16:33:34Z</time></trkpt><trkpt lat="49.04517625560264" lon="2.496342258651456"><ele>92.0</ele><time>2026-03-31T16:33:35Z</time></trkpt><trkpt lat="49.045114730146764" lon="2.496427453132534"><ele>92.0</ele><time>2026-03-31T16:33:36Z</time></trkpt><trkpt lat="49.045049646329865" lon="2.4965041805378627"><ele>91.6</ele><time>2026-03-31T16:33:37Z</time></trkpt><trkpt lat="49.04497140638737" lon="2.496567392829461"><ele>91.19999999999999</ele><time>2026-03-31T16:33:38Z</time></trkpt><trkpt lat="49.0448825799943" lon="2.496606192057162"><ele>90.8</ele><time>2026-03-31T16:33:39Z</time></trkpt><trkpt lat="49.04479334524737" lon="2.4966656274847923"><ele>90.4</ele><time>2026-03-31T16:33:40Z</time></trkpt><trkpt lat="49.04470848041595" lon="2.496741145003401"><ele>90.0</ele><time>2026-03-31T16:33:41Z</time></trkpt><trkpt lat="49.044615554407976" lon="2.496805008551186"><ele>88.8</ele><time>2026-03-31T16:33:42Z</time></trkpt><trkpt lat="49.04451934566935" lon="2.4968286222620004"><ele>87.6</ele><time>2026-03-31T16:33:43Z</time></trkpt><trkpt lat="49.04441398255019" lon="2.4968085082146647"><ele>86.4</ele><time>2026-03-31T16:33:44Z</time></trkpt><trkpt lat="49.0443038455024" lon="2.4968019679906392"><ele>85.2</ele><time>2026-03-31T16:33:45Z</time></trkpt><trkpt lat="49.04420525471077" lon="2.496748782315682"><ele>84.0</ele><time>2026-03-31T16:33:46Z</time></trkpt><trkpt lat="49.044091686963505" lon="2.496680134060954"><ele>83.0</ele><time>2026-03-31T16:33:47Z</time></trkpt><trkpt lat="49.043967221649886" lon="2.4965998455434253"><ele>82.0</ele><time>2026-03-31T16:33:48Z</time></trkpt><trkpt lat="49.04385048687934" lon="2.496526049526831"><ele>81.0</ele><time>2026-03-31T16:33:49Z</time></trkpt><trkpt lat="49.04374550893515" lon="2.496472550118037"><ele>80.0</ele><time>2026-03-31T16:33:50Z</time></trkpt><trkpt lat="49.043641450720685" lon="2.4964156850041266"><ele>80.0</ele><time>2026-03-31T16:33:51Z</time></trkpt><trkpt lat="49.043531207556555" lon="2.496358490203182"><ele>80.0</ele><time>2026-03-31T16:33:52Z</time></trkpt><trkpt lat="49.04341609957078" lon="2.4963109299793693"><ele>80.0</ele><time>2026-03-31T16:33:53Z</time></trkpt><trkpt lat="49.04329316456629" lon="2.4962862190240425"><ele>80.0</ele><time>2026-03-31T16:33:54Z</time></trkpt><trkpt lat="49.0431758637095" lon="2.4962696811991725"><ele>80.0</ele><time>2026-03-31T16:33:55Z</time></trkpt><trkpt lat="49.043053620405935" lon="2.4962816014969125"><ele>80.0</ele><time>2026-03-31T16:33:56Z</time></trkpt><trkpt lat="49.04293502986978" lon="2.496308776451183"><ele>80.0</ele><time>2026-03-31T16:33:57Z</time></trkpt><trkpt lat="49.04281888936537" lon="2.4963464123831485"><ele>80.0</ele><time>2026-03-31T16:33:58Z</time></trkpt><trkpt lat="49.042705265089104" lon="2.496401333908923"><ele>80.0</ele><time>2026-03-31T16:33:59Z</time></trkpt><trkpt lat="49.04259112838007" lon="2.4964717984898326"><ele>80.0</ele><time>2026-03-31T16:34:00Z</time></trkpt><trkpt lat="49.04247917784403" lon="2.496553064271679"><ele>80.0</ele><time>2026-03-31T16:34:01Z</time></trkpt><trkpt lat="49.042372800546126" lon="2.496648052691598"><ele>80.0</ele><time>2026-03-31T16:34:02Z</time></trkpt><trkpt lat="49.04227366276282" lon="2.49676178309185"><ele>79.75</ele><time>2026-03-31T16:34:03Z</time></trkpt><trkpt lat="49.04218737254967" lon="2.4968859070961016"><ele>79.5</ele><time>2026-03-31T16:34:04Z</time></trkpt><trkpt lat="49.04210760528614" lon="2.497017635912157"><ele>79.25</ele><time>2026-03-31T16:34:05Z</time></trkpt><trkpt lat="49.04202936524671" lon="2.4971524816648243"><ele>79.0</ele><time>2026-03-31T16:34:06Z</time></trkpt><trkpt lat="49.04194674052128" lon="2.497283673547948"><ele>78.5</ele><time>2026-03-31T16:34:07Z</time></trkpt><trkpt lat="49.04186339458272" lon="2.49740810573278"><ele>78.0</ele><time>2026-03-31T16:34:08Z</time></trkpt><trkpt lat="49.041775378089554" lon="2.497547095046298"><ele>77.5</ele><time>2026-03-31T16:34:09Z</time></trkpt><trkpt lat="49.04169143968166" lon="2.497683362394132"><ele>77.0</ele><time>2026-03-31T16:34:10Z</time></trkpt><trkpt lat="49.04160022497247" lon="2.49781651465399"><ele>77.0</ele><time>2026-03-31T16:34:11Z</time></trkpt><trkpt lat="49.04151784837939" lon="2.497949583127024"><ele>77.0</ele><time>2026-03-31T16:34:12Z</time></trkpt><trkpt lat="49.04143768603479" lon="2.498086196549533"><ele>77.0</ele><time>2026-03-31T16:34:13Z</time></trkpt><trkpt lat="49.041350277104044" lon="2.4982242200882085"><ele>77.0</ele><time>2026-03-31T16:34:14Z</time></trkpt><trkpt lat="49.041268749042956" lon="2.49835228232065"><ele>77.0</ele><time>2026-03-31T16:34:15Z</time></trkpt><trkpt lat="49.04118464569092" lon="2.4984828643448833"><ele>77.0</ele><time>2026-03-31T16:34:16Z</time></trkpt><trkpt lat="49.04109629445904" lon="2.4986080745283963"><ele>77.0</ele><time>2026-03-31T16:34:17Z</time></trkpt><trkpt lat="49.04101799458319" lon="2.498739968997936"><ele>77.0</ele><time>2026-03-31T16:34:18Z</time></trkpt><trkpt lat="49.04093676214259" lon="2.4988727214764643"><ele>76.75</ele><time>2026-03-31T16:34:19Z</time></trkpt><trkpt lat="49.04085006213102" lon="2.4989968291691835"><ele>76.5</ele><time>2026-03-31T16:34:20Z</time></trkpt><trkpt lat="49.04077211245189" lon="2.4991233617160766"><ele>76.25</ele><time>2026-03-31T16:34:21Z</time></trkpt><trkpt lat="49.04069043010183" lon="2.4992517209578113"><ele>76.0</ele><time>2026-03-31T16:34:22Z</time></trkpt><trkpt lat="49.04060569440503" lon="2.4993776584390646"><ele>76.0</ele><time>2026-03-31T16:34:23Z</time></trkpt><trkpt lat="49.04051681564068" lon="2.4995023561355323"><ele>76.0</ele><time>2026-03-31T16:34:24Z</time></trkpt><trkpt lat="49.040434268126006" lon="2.499637880853902"><ele>76.0</ele><time>2026-03-31T16:34:25Z</time></trkpt><trkpt lat="49.04034666849526" lon="2.49977496309881"><ele>76.0</ele><time>2026-03-31T16:34:26Z</time></trkpt><trkpt lat="49.04026729371788" lon="2.4999133553518527"><ele>75.25</ele><time>2026-03-31T16:34:27Z</time></trkpt><trkpt lat="49.040183334019574" lon="2.5000418611113915"><ele>74.5</ele><time>2026-03-31T16:34:28Z</time></trkpt><trkpt lat="49.040095274214586" lon="2.5001567122170245"><ele>73.75</ele><time>2026-03-31T16:34:29Z</time></trkpt><trkpt lat="49.04000972214968" lon="2.500279635974257"><ele>73.0</ele><time>2026-03-31T16:34:30Z</time></trkpt><trkpt lat="49.03992065796166" lon="2.5004106071199756"><ele>74.0</ele><time>2026-03-31T16:34:31Z</time></trkpt><trkpt lat="49.03983265658662" lon="2.5005450102218174"><ele>75.0</ele><time>2026-03-31T16:34:32Z</time></trkpt><trkpt lat="49.039743600135075" lon="2.500676124006501"><ele>76.0</ele><time>2026-03-31T16:34:33Z</time></trkpt><trkpt lat="49.039653786026044" lon="2.5008001186922573"><ele>77.0</ele><time>2026-03-31T16:34:34Z</time></trkpt><trkpt lat="49.039562647495224" lon="2.500913013782333"><ele>77.0</ele><time>2026-03-31T16:34:35Z</time></trkpt><trkpt lat="49.039466228712115" lon="2.5010324871869525"><ele>77.0</ele><time>2026-03-31T16:34:36Z</time></trkpt><trkpt lat="49.03937111120314" lon="2.501156298528632"><ele>77.0</ele><time>2026-03-31T16:34:37Z</time></trkpt><trkpt lat="49.039281948865366" lon="2.5012749744722407"><ele>77.0</ele><time>2026-03-31T16:34:38Z</time></trkpt><trkpt lat="49.03920077154397" lon="2.501393738222825"><ele>76.0</ele><time>2026-03-31T16:34:39Z</time></trkpt><trkpt lat="49.03911455776101" lon="2.501501585512081"><ele>75.0</ele><time>2026-03-31T16:34:40Z</time></trkpt><trkpt lat="49.039023191018025" lon="2.5016232372518643"><ele>74.0</ele><time>2026-03-31T16:34:40.999Z</time></trkpt><trkpt lat="49.03893824328275" lon="2.501739389967915"><ele>73.0</ele><time>2026-03-31T16:34:41.999Z</time></trkpt><trkpt lat="49.03885057043538" lon="2.5018400564496357"><ele>73.0</ele><time>2026-03-31T16:34:42.999Z</time></trkpt><trkpt lat="49.03877382339891" lon="2.5019531257098566"><ele>73.0</ele><time>2026-03-31T16:34:43.999Z</time></trkpt><trkpt lat="49.038692876089684" lon="2.502055056966603"><ele>73.0</ele><time>2026-03-31T16:34:44.999Z</time></trkpt><trkpt lat="49.03861037704492" lon="2.502151466550719"><ele>73.0</ele><time>2026-03-31T16:34:45.999Z</time></trkpt><trkpt lat="49.038577425315566" lon="2.502307256668642"><ele>73.0</ele><time>2026-03-31T16:34:46.999Z</time></trkpt><trkpt lat="49.03852747460295" lon="2.5024548088757537"><ele>73.5</ele><time>2026-03-31T16:34:47.999Z</time></trkpt><trkpt lat="49.038489665897096" lon="2.502599475883973"><ele>74.0</ele><time>2026-03-31T16:34:48.999Z</time></trkpt><trkpt lat="49.03846342343504" lon="2.502771212920941"><ele>74.5</ele><time>2026-03-31T16:34:49.999Z</time></trkpt><trkpt lat="49.03844743593511" lon="2.502949022642414"><ele>75.0</ele><time>2026-03-31T16:34:50.999Z</time></trkpt><trkpt lat="49.03844170765109" lon="2.5031271513593194"><ele>75.0</ele><time>2026-03-31T16:34:51.999Z</time></trkpt><trkpt lat="49.038439821099786" lon="2.503301873348095"><ele>75.0</ele><time>2026-03-31T16:34:52.999Z</time></trkpt><trkpt lat="49.03841893455231" lon="2.503473191612259"><ele>75.0</ele><time>2026-03-31T16:34:53.999Z</time></trkpt><trkpt lat="49.038423757267225" lon="2.5036529302068002"><ele>75.0</ele><time>2026-03-31T16:34:54.999Z</time></trkpt><trkpt lat="49.038406215747045" lon="2.50383158348863"><ele>74.75</ele><time>2026-03-31T16:34:55.999Z</time></trkpt><trkpt lat="49.03839179546398" lon="2.5040136226629426"><ele>74.5</ele><time>2026-03-31T16:34:56.999Z</time></trkpt><trkpt lat="49.03837691005437" lon="2.5042044637398093"><ele>74.25</ele><time>2026-03-31T16:34:57.999Z</time></trkpt><trkpt lat="49.03837501555038" lon="2.5043916427175934"><ele>74.0</ele><time>2026-03-31T16:34:58.999Z</time></trkpt><trkpt lat="49.03837476156157" lon="2.5045766261769846"><ele>74.60000000000001</ele><time>2026-03-31T16:34:59.999Z</time></trkpt><trkpt lat="49.038371930697146" lon="2.504764373504752"><ele>75.2</ele><time>2026-03-31T16:35:00.999Z</time></trkpt><trkpt lat="49.03836875114086" lon="2.5049426049473267"><ele>75.80000000000001</ele><time>2026-03-31T16:35:01.999Z</time></trkpt><trkpt lat="49.03835664168712" lon="2.5050989342506305"><ele>76.4</ele><time>2026-03-31T16:35:02.999Z</time></trkpt><trkpt lat="49.0383498543313" lon="2.5052346064906996"><ele>77.0</ele><time>2026-03-31T16:35:03.999Z</time></trkpt><trkpt lat="49.038345178095376" lon="2.505345523784662"><ele>77.2</ele><time>2026-03-31T16:35:04.999Z</time></trkpt><trkpt lat="49.038332640367386" lon="2.505446006587042"><ele>77.4</ele><time>2026-03-31T16:35:05.999Z</time></trkpt><trkpt lat="49.038229802755" lon="2.5055564827402"><ele>77.6</ele><time>2026-03-31T16:35:07.999Z</time></trkpt><trkpt lat="49.038148171098264" lon="2.5055042037219666"><ele>77.8</ele><time>2026-03-31T16:35:08.999Z</time></trkpt><trkpt lat="49.03804696750653" lon="2.5055175853888496"><ele>78.0</ele><time>2026-03-31T16:35:09.999Z</time></trkpt><trkpt lat="49.037944154103116" lon="2.505508929015129"><ele>78.0</ele><time>2026-03-31T16:35:10.999Z</time></trkpt><trkpt lat="49.037835061199466" lon="2.505514057226502"><ele>78.0</ele><time>2026-03-31T16:35:11.999Z</time></trkpt><trkpt lat="49.03772706106526" lon="2.505508611846921"><ele>78.0</ele><time>2026-03-31T16:35:12.999Z</time></trkpt><trkpt lat="49.037631136170575" lon="2.5055123835457707"><ele>78.0</ele><time>2026-03-31T16:35:14.001Z</time></trkpt><trkpt lat="49.037545187021145" lon="2.5054989062416"><ele>78.0</ele><time>2026-03-31T16:35:15.001Z</time></trkpt><trkpt lat="49.037461724744695" lon="2.505500941595011"><ele>79.0</ele><time>2026-03-31T16:35:16.001Z</time></trkpt><trkpt lat="49.03738397272157" lon="2.505498937679385"><ele>80.0</ele><time>2026-03-31T16:35:17.001Z</time></trkpt><trkpt lat="49.03731158725026" lon="2.505493826926125"><ele>81.0</ele><time>2026-03-31T16:35:18.001Z</time></trkpt><trkpt lat="49.03724769954946" lon="2.505496112188215"><ele>82.0</ele><time>2026-03-31T16:35:19.001Z</time></trkpt><trkpt lat="49.03718486509201" lon="2.5054880011904133"><ele>83.0</ele><time>2026-03-31T16:35:20.001Z</time></trkpt><trkpt lat="49.03708251541425" lon="2.505487675729234"><ele>84.0</ele><time>2026-03-31T16:35:22.001Z</time></trkpt><trkpt lat="49.03698515372627" lon="2.505479843616307"><ele>84.0</ele><time>2026-03-31T16:35:24.001Z</time></trkpt><trkpt lat="49.03687782452527" lon="2.5054805917634986"><ele>84.0</ele><time>2026-03-31T16:35:26.001Z</time></trkpt><trkpt lat="49.036775817146385" lon="2.505477653241802"><ele>84.0</ele><time>2026-03-31T16:35:28.001Z</time></trkpt><trkpt lat="49.0366623873233" lon="2.5054706769682724"><ele>84.0</ele><time>2026-03-31T16:35:30.001Z</time></trkpt><trkpt lat="49.03659399482182" lon="2.5054642284183894"><ele>84.0</ele><time>2026-03-31T16:35:31.001Z</time></trkpt><trkpt lat="49.03646843658733" lon="2.5054650287353097"><ele>84.83333333333333</ele><time>2026-03-31T16:35:33.001Z</time></trkpt><trkpt lat="49.036400889529986" lon="2.5054553540527422"><ele>85.66666666666667</ele><time>2026-03-31T16:35:34.001Z</time></trkpt><trkpt lat="49.03632910456091" lon="2.505453808633339"><ele>86.5</ele><time>2026-03-31T16:35:35.001Z</time></trkpt><trkpt lat="49.03624713350227" lon="2.505452043923686"><ele>87.33333333333334</ele><time>2026-03-31T16:35:36Z</time></trkpt><trkpt lat="49.03616401416513" lon="2.505450254484584"><ele>88.16666666666667</ele><time>2026-03-31T16:35:37Z</time></trkpt><trkpt lat="49.03607995486951" lon="2.505446581425928"><ele>89.0</ele><time>2026-03-31T16:35:38Z</time></trkpt><trkpt lat="49.0359938860683" lon="2.5054188772747015"><ele>89.0</ele><time>2026-03-31T16:35:39Z</time></trkpt><trkpt lat="49.03589633949034" lon="2.505416798246305"><ele>89.0</ele><time>2026-03-31T16:35:40Z</time></trkpt><trkpt lat="49.0357782199834" lon="2.5054146942796134"><ele>89.0</ele><time>2026-03-31T16:35:41Z</time></trkpt><trkpt lat="49.03564616350508" lon="2.5054148421733204"><ele>89.0</ele><time>2026-03-31T16:35:42Z</time></trkpt><trkpt lat="49.03551286330514" lon="2.505417653147402"><ele>90.25</ele><time>2026-03-31T16:35:43Z</time></trkpt><trkpt lat="49.0353810561008" lon="2.5054120946298055"><ele>91.5</ele><time>2026-03-31T16:35:44Z</time></trkpt><trkpt lat="49.035244957499565" lon="2.5053957881875726"><ele>92.75</ele><time>2026-03-31T16:35:45Z</time></trkpt><trkpt lat="49.03511223342517" lon="2.5053784697486936"><ele>94.0</ele><time>2026-03-31T16:35:46Z</time></trkpt><trkpt lat="49.034975450910544" lon="2.5053449402379764"><ele>95.66666666666666</ele><time>2026-03-31T16:35:47Z</time></trkpt><trkpt lat="49.03483251576066" lon="2.5052942102804905"><ele>97.33333333333333</ele><time>2026-03-31T16:35:48Z</time></trkpt><trkpt lat="49.03468206225709" lon="2.505228310371562"><ele>99.0</ele><time>2026-03-31T16:35:49Z</time></trkpt><trkpt lat="49.03452609497506" lon="2.505138529208192"><ele>99.0</ele><time>2026-03-31T16:35:50Z</time></trkpt><trkpt lat="49.0343682128288" lon="2.5050417862311916"><ele>99.0</ele><time>2026-03-31T16:35:51Z</time></trkpt><trkpt lat="49.03420226535346" lon="2.504925691617582"><ele>99.0</ele><time>2026-03-31T16:35:52Z</time></trkpt><trkpt lat="49.03403312039734" lon="2.5048085070785002"><ele>99.66666666666666</ele><time>2026-03-31T16:35:53Z</time></trkpt><trkpt lat="49.03385702004519" lon="2.5047034484892463"><ele>100.33333333333333</ele><time>2026-03-31T16:35:54Z</time></trkpt><trkpt lat="49.03367973062508" lon="2.504596301741338"><ele>101.0</ele><time>2026-03-31T16:35:55Z</time></trkpt><trkpt lat="49.03350270371575" lon="2.5044870956476513"><ele>101.0</ele><time>2026-03-31T16:35:56Z</time></trkpt><trkpt lat="49.0333169672071" lon="2.504380480041858"><ele>101.0</ele><time>2026-03-31T16:35:57Z</time></trkpt><trkpt lat="49.03311946225878" lon="2.504266591145819"><ele>101.0</ele><time>2026-03-31T16:35:58Z</time></trkpt><trkpt lat="49.03292313802135" lon="2.5041424432395223"><ele>101.33333333333333</ele><time>2026-03-31T16:35:59Z</time></trkpt><trkpt lat="49.03272500284327" lon="2.5040096255662747"><ele>101.66666666666666</ele><time>2026-03-31T16:36:00Z</time></trkpt><trkpt lat="49.03252598518585" lon="2.503879522531296"><ele>102.0</ele><time>2026-03-31T16:36:01Z</time></trkpt><trkpt lat="49.03233508620612" lon="2.50374637093721"><ele>102.33333333333334</ele><time>2026-03-31T16:36:02Z</time></trkpt><trkpt lat="49.032154486275026" lon="2.5035853475200356"><ele>102.66666666666667</ele><time>2026-03-31T16:36:03Z</time></trkpt><trkpt lat="49.031985618861064" lon="2.5033998738537693"><ele>103.0</ele><time>2026-03-31T16:36:04Z</time></trkpt><trkpt lat="49.03182490524314" lon="2.5031996904110456"><ele>103.0</ele><time>2026-03-31T16:36:05Z</time></trkpt><trkpt lat="49.031676723220805" lon="2.502981606115131"><ele>103.0</ele><time>2026-03-31T16:36:06Z</time></trkpt><trkpt lat="49.03154275656049" lon="2.5027443585798044"><ele>103.0</ele><time>2026-03-31T16:36:07Z</time></trkpt><trkpt lat="49.03142458178232" lon="2.502489867309215"><ele>102.66666666666667</ele><time>2026-03-31T16:36:08Z</time></trkpt><trkpt lat="49.03131940873472" lon="2.5022228011432617"><ele>102.33333333333334</ele><time>2026-03-31T16:36:09Z</time></trkpt><trkpt lat="49.03121915835254" lon="2.5019535821133623"><ele>102.0</ele><time>2026-03-31T16:36:10Z</time></trkpt><trkpt lat="49.03112239627892" lon="2.501696908240091"><ele>101.66666666666666</ele><time>2026-03-31T16:36:11Z</time></trkpt><trkpt lat="49.031029765046384" lon="2.5014528651508785"><ele>101.33333333333333</ele><time>2026-03-31T16:36:12Z</time></trkpt><trkpt lat="49.03094659485686" lon="2.501236378601102"><ele>101.0</ele><time>2026-03-31T16:36:13Z</time></trkpt><trkpt lat="49.03086511834258" lon="2.501030690233228"><ele>100.5</ele><time>2026-03-31T16:36:14Z</time></trkpt><trkpt lat="49.030781053051975" lon="2.5008441799036993"><ele>100.0</ele><time>2026-03-31T16:36:15Z</time></trkpt><trkpt lat="49.030693884599124" lon="2.500680371421675"><ele>99.5</ele><time>2026-03-31T16:36:16Z</time></trkpt><trkpt lat="49.030603194937754" lon="2.5005278772714137"><ele>99.0</ele><time>2026-03-31T16:36:17Z</time></trkpt><trkpt lat="49.03051831852218" lon="2.500391954239264"><ele>99.0</ele><time>2026-03-31T16:36:18Z</time></trkpt><trkpt lat="49.03043317102919" lon="2.5002590050029387"><ele>99.0</ele><time>2026-03-31T16:36:19Z</time></trkpt><trkpt lat="49.030348324404976" lon="2.5001360933495804"><ele>99.0</ele><time>2026-03-31T16:36:20Z</time></trkpt><trkpt lat="49.030266236247925" lon="2.500023651646731"><ele>99.0</ele><time>2026-03-31T16:36:21Z</time></trkpt><trkpt lat="49.03020263558806" lon="2.499930313496382"><ele>99.0</ele><time>2026-03-31T16:36:22Z</time></trkpt><trkpt lat="49.0301188109642" lon="2.499791318743168"><ele>99.0</ele><time>2026-03-31T16:36:24Z</time></trkpt><trkpt lat="49.0300961788561" lon="2.4996825453824165"><ele>99.0</ele><time>2026-03-31T16:36:25Z</time></trkpt><trkpt lat="49.030054612380006" lon="2.4995860227702447"><ele>99.0</ele><time>2026-03-31T16:36:26Z</time></trkpt><trkpt lat="49.03003722565464" lon="2.4994728959921737"><ele>99.0</ele><time>2026-03-31T16:36:27Z</time></trkpt><trkpt lat="49.03001704553332" lon="2.499339284863208"><ele>99.0</ele><time>2026-03-31T16:36:28Z</time></trkpt><trkpt lat="49.029972972910656" lon="2.499183696503036"><ele>99.0</ele><time>2026-03-31T16:36:29Z</time></trkpt><trkpt lat="49.029909931913714" lon="2.4990330167140224"><ele>98.80000000000001</ele><time>2026-03-31T16:36:30Z</time></trkpt><trkpt lat="49.029833412954346" lon="2.4989087171386304"><ele>98.60000000000001</ele><time>2026-03-31T16:36:31Z</time></trkpt><trkpt lat="49.02974786760211" lon="2.498805691719264"><ele>98.4</ele><time>2026-03-31T16:36:32Z</time></trkpt><trkpt lat="49.02965447105891" lon="2.498737270497137"><ele>98.2</ele><time>2026-03-31T16:36:33Z</time></trkpt><trkpt lat="49.02956237344592" lon="2.49870076110326"><ele>98.0</ele><time>2026-03-31T16:36:34Z</time></trkpt><trkpt lat="49.02946774301982" lon="2.4986788365077652"><ele>97.99999999999999</ele><time>2026-03-31T16:36:35Z</time></trkpt><trkpt lat="49.02936559091487" lon="2.498682634645872"><ele>98.0</ele><time>2026-03-31T16:36:36Z</time></trkpt><trkpt lat="49.02927227414718" lon="2.4986991446760882"><ele>98.0</ele><time>2026-03-31T16:36:37Z</time></trkpt><trkpt lat="49.029194332414804" lon="2.4987248574428977"><ele>98.0</ele><time>2026-03-31T16:36:38Z</time></trkpt><trkpt lat="49.029124811608966" lon="2.498763671540282"><ele>97.99999999999999</ele><time>2026-03-31T16:36:38.999Z</time></trkpt><trkpt lat="49.02904901155309" lon="2.498828254633411"><ele>98.0</ele><time>2026-03-31T16:36:39.999Z</time></trkpt><trkpt lat="49.028979704101936" lon="2.4989023058040902"><ele>97.99999999999999</ele><time>2026-03-31T16:36:40.999Z</time></trkpt><trkpt lat="49.0289254296918" lon="2.49898408621807"><ele>98.0</ele><time>2026-03-31T16:36:41.999Z</time></trkpt><trkpt lat="49.02887990855168" lon="2.499072267957414"><ele>98.0</ele><time>2026-03-31T16:36:42.999Z</time></trkpt><trkpt lat="49.02884649172386" lon="2.499175420063051"><ele>98.0</ele><time>2026-03-31T16:36:43.999Z</time></trkpt><trkpt lat="49.02881653038725" lon="2.499265778636189"><ele>97.99999999999999</ele><time>2026-03-31T16:36:44.999Z</time></trkpt><trkpt lat="49.02875423192295" lon="2.4994092037249556"><ele>98.0</ele><time>2026-03-31T16:36:46.999Z</time></trkpt><trkpt lat="49.02866526308827" lon="2.499496316983442"><ele>98.0</ele><time>2026-03-31T16:36:48.999Z</time></trkpt><trkpt lat="49.028604153587125" lon="2.4995216800544"><ele>98.0</ele><time>2026-03-31T16:36:49.999Z</time></trkpt><trkpt lat="49.028519509134576" lon="2.4995412733032905"><ele>98.0</ele><time>2026-03-31T16:36:50.999Z</time></trkpt><trkpt lat="49.02840626292542" lon="2.499543783310953"><ele>98.0</ele><time>2026-03-31T16:36:51.999Z</time></trkpt><trkpt lat="49.028274530228565" lon="2.499540633328424"><ele>98.0</ele><time>2026-03-31T16:36:52.999Z</time></trkpt><trkpt lat="49.028125286432626" lon="2.499535897186033"><ele>97.33333333333333</ele><time>2026-03-31T16:36:53.999Z</time></trkpt><trkpt lat="49.027960492043704" lon="2.4995282343305236"><ele>96.66666666666666</ele><time>2026-03-31T16:36:54.999Z</time></trkpt><trkpt lat="49.02777636988039" lon="2.4995225947588633"><ele>96.0</ele><time>2026-03-31T16:36:55.999Z</time></trkpt><trkpt lat="49.02757520503044" lon="2.499525683032046"><ele>96.33333333333334</ele><time>2026-03-31T16:36:56.999Z</time></trkpt><trkpt lat="49.02737226491332" lon="2.4995470659045442"><ele>96.66666666666667</ele><time>2026-03-31T16:36:57.999Z</time></trkpt><trkpt lat="49.02716496829673" lon="2.4995913057342607"><ele>97.0</ele><time>2026-03-31T16:36:58.999Z</time></trkpt><trkpt lat="49.02695471020246" lon="2.4996412848094165"><ele>97.66666666666667</ele><time>2026-03-31T16:36:59.999Z</time></trkpt><trkpt lat="49.02674617783667" lon="2.499691057729412"><ele>98.33333333333334</ele><time>2026-03-31T16:37:00.999Z</time></trkpt><trkpt lat="49.026538426517526" lon="2.499732705749017"><ele>99.0</ele><time>2026-03-31T16:37:01.999Z</time></trkpt><trkpt lat="49.02631764895568" lon="2.4997531514839144"><ele>100.0</ele><time>2026-03-31T16:37:02.999Z</time></trkpt><trkpt lat="49.02610052489298" lon="2.499756063190111"><ele>101.0</ele><time>2026-03-31T16:37:03.999Z</time></trkpt><trkpt lat="49.02588748375224" lon="2.499728743133077"><ele>102.0</ele><time>2026-03-31T16:37:04.999Z</time></trkpt><trkpt lat="49.02566969634968" lon="2.4996775672368443"><ele>102.0</ele><time>2026-03-31T16:37:05.999Z</time></trkpt><trkpt lat="49.02546417976944" lon="2.499600729191402"><ele>102.0</ele><time>2026-03-31T16:37:06.999Z</time></trkpt><trkpt lat="49.02526451015961" lon="2.499490663020293"><ele>102.0</ele><time>2026-03-31T16:37:07.999Z</time></trkpt><trkpt lat="49.02506807883463" lon="2.499359658559446"><ele>102.0</ele><time>2026-03-31T16:37:08.999Z</time></trkpt><trkpt lat="49.02487256078039" lon="2.4992137884119052"><ele>102.0</ele><time>2026-03-31T16:37:09.999Z</time></trkpt><trkpt lat="49.024678829128476" lon="2.499056712781548"><ele>102.0</ele><time>2026-03-31T16:37:10.999Z</time></trkpt><trkpt lat="49.02448688220988" lon="2.498893246340063"><ele>101.66666666666666</ele><time>2026-03-31T16:37:11.999Z</time></trkpt><trkpt lat="49.024292697118646" lon="2.4987361861056416"><ele>101.33333333333333</ele><time>2026-03-31T16:37:12.999Z</time></trkpt><trkpt lat="49.024094890845035" lon="2.498580738869626"><ele>101.0</ele><time>2026-03-31T16:37:13.999Z</time></trkpt><trkpt lat="49.023895093622954" lon="2.498426468183738"><ele>101.0</ele><time>2026-03-31T16:37:14.999Z</time></trkpt><trkpt lat="49.023689474537534" lon="2.4982744693715864"><ele>101.0</ele><time>2026-03-31T16:37:15.999Z</time></trkpt><trkpt lat="49.023482329115424" lon="2.498130129001525"><ele>101.5</ele><time>2026-03-31T16:37:16.999Z</time></trkpt><trkpt lat="49.02327140444785" lon="2.4979938697421917"><ele>102.0</ele><time>2026-03-31T16:37:17.999Z</time></trkpt><trkpt lat="49.023055486442566" lon="2.497860165346573"><ele>102.5</ele><time>2026-03-31T16:37:18.999Z</time></trkpt><trkpt lat="49.02284035658334" lon="2.4977314342076467"><ele>103.0</ele><time>2026-03-31T16:37:20.001Z</time></trkpt><trkpt lat="49.022626409747886" lon="2.4975990005679978"><ele>104.0</ele><time>2026-03-31T16:37:21.001Z</time></trkpt><trkpt lat="49.02241209042948" lon="2.497460501669823"><ele>105.0</ele><time>2026-03-31T16:37:22.001Z</time></trkpt><trkpt lat="49.02219798386997" lon="2.4973213320301695"><ele>105.0</ele><time>2026-03-31T16:37:23.001Z</time></trkpt><trkpt lat="49.021987039537684" lon="2.4971809998542303"><ele>105.0</ele><time>2026-03-31T16:37:24.001Z</time></trkpt><trkpt lat="49.021778515367224" lon="2.4970453007703117"><ele>105.0</ele><time>2026-03-31T16:37:25.001Z</time></trkpt><trkpt lat="49.02156786824534" lon="2.4969120996080147"><ele>105.0</ele><time>2026-03-31T16:37:26.001Z</time></trkpt><trkpt lat="49.021355829341815" lon="2.4967775419943306"><ele>105.0</ele><time>2026-03-31T16:37:27.001Z</time></trkpt><trkpt lat="49.02114569875813" lon="2.496642805853528"><ele>105.0</ele><time>2026-03-31T16:37:28.001Z</time></trkpt><trkpt lat="49.02093542580969" lon="2.4965082248761026"><ele>104.5</ele><time>2026-03-31T16:37:29.001Z</time></trkpt><trkpt lat="49.02072585100591" lon="2.496376347553625"><ele>104.0</ele><time>2026-03-31T16:37:30.001Z</time></trkpt><trkpt lat="49.020518239357386" lon="2.49624235844825"><ele>104.0</ele><time>2026-03-31T16:37:31.001Z</time></trkpt><trkpt lat="49.02031202773497" lon="2.4961058407905394"><ele>104.0</ele><time>2026-03-31T16:37:32.001Z</time></trkpt><trkpt lat="49.02010579614844" lon="2.495971046442867"><ele>104.0</ele><time>2026-03-31T16:37:33.001Z</time></trkpt><trkpt lat="49.01989691100975" lon="2.4958390065704874"><ele>104.0</ele><time>2026-03-31T16:37:34.001Z</time></trkpt><trkpt lat="49.019685514418306" lon="2.4957079977321186"><ele>104.0</ele><time>2026-03-31T16:37:35.001Z</time></trkpt><trkpt lat="49.019472868898134" lon="2.495575177720209"><ele>104.0</ele><time>2026-03-31T16:37:36.001Z</time></trkpt><trkpt lat="49.019259770756726" lon="2.4954394046683306"><ele>104.0</ele><time>2026-03-31T16:37:37.001Z</time></trkpt><trkpt lat="49.01904521365342" lon="2.4953014536928286"><ele>105.0</ele><time>2026-03-31T16:37:38.001Z</time></trkpt><trkpt lat="49.01883050205064" lon="2.4951629556525194"><ele>106.0</ele><time>2026-03-31T16:37:39Z</time></trkpt><trkpt lat="49.01861582516614" lon="2.495024721563091"><ele>106.0</ele><time>2026-03-31T16:37:40Z</time></trkpt><trkpt lat="49.01839995785193" lon="2.4948862710284727"><ele>106.0</ele><time>2026-03-31T16:37:41Z</time></trkpt><trkpt lat="49.01818214699222" lon="2.49474849776802"><ele>106.0</ele><time>2026-03-31T16:37:42Z</time></trkpt><trkpt lat="49.01796359395219" lon="2.4946088331457745"><ele>106.0</ele><time>2026-03-31T16:37:43Z</time></trkpt><trkpt lat="49.01774486236512" lon="2.4944692731630775"><ele>106.0</ele><time>2026-03-31T16:37:44Z</time></trkpt><trkpt lat="49.017524325906095" lon="2.494326914004384"><ele>106.0</ele><time>2026-03-31T16:37:45Z</time></trkpt><trkpt lat="49.01730422023634" lon="2.4941851284469063"><ele>105.5</ele><time>2026-03-31T16:37:46Z</time></trkpt><trkpt lat="49.01708333369682" lon="2.494045474799478"><ele>105.0</ele><time>2026-03-31T16:37:47Z</time></trkpt><trkpt lat="49.016861536073804" lon="2.49390613061125"><ele>105.0</ele><time>2026-03-31T16:37:48Z</time></trkpt><trkpt lat="49.016646619465334" lon="2.493771943965357"><ele>105.0</ele><time>2026-03-31T16:37:49Z</time></trkpt><trkpt lat="49.01644070174381" lon="2.4936418079313176"><ele>105.0</ele><time>2026-03-31T16:37:50Z</time></trkpt><trkpt lat="49.01623462600264" lon="2.493516129804541"><ele>105.0</ele><time>2026-03-31T16:37:51Z</time></trkpt><trkpt lat="49.016024054458114" lon="2.4934020385289544"><ele>105.0</ele><time>2026-03-31T16:37:52Z</time></trkpt><trkpt lat="49.01581200625098" lon="2.4932989453167207"><ele>105.0</ele><time>2026-03-31T16:37:53Z</time></trkpt><trkpt lat="49.01559896341875" lon="2.493203331506389"><ele>105.0</ele><time>2026-03-31T16:37:54Z</time></trkpt><trkpt lat="49.015386477135245" lon="2.4931142865079132"><ele>105.0</ele><time>2026-03-31T16:37:55Z</time></trkpt><trkpt lat="49.01517142596727" lon="2.493028747343363"><ele>104.66666666666666</ele><time>2026-03-31T16:37:56Z</time></trkpt><trkpt lat="49.014956918599886" lon="2.4929413092921022"><ele>104.33333333333333</ele><time>2026-03-31T16:37:57Z</time></trkpt><trkpt lat="49.01474207421931" lon="2.4928522342436072"><ele>104.0</ele><time>2026-03-31T16:37:58Z</time></trkpt><trkpt lat="49.01453026691764" lon="2.4927581852639316"><ele>104.0</ele><time>2026-03-31T16:37:59Z</time></trkpt><trkpt lat="49.01431717060797" lon="2.4926631476245937"><ele>104.0</ele><time>2026-03-31T16:38:00Z</time></trkpt><trkpt lat="49.01410307247918" lon="2.4925688456721207"><ele>104.0</ele><time>2026-03-31T16:38:01Z</time></trkpt><trkpt lat="49.01388888209704" lon="2.4924771237097705"><ele>104.0</ele><time>2026-03-31T16:38:02Z</time></trkpt><trkpt lat="49.013682038332334" lon="2.492393541031016"><ele>104.0</ele><time>2026-03-31T16:38:03Z</time></trkpt><trkpt lat="49.013479097263016" lon="2.4923105386855817"><ele>104.0</ele><time>2026-03-31T16:38:04Z</time></trkpt><trkpt lat="49.01328232348683" lon="2.4922290780008596"><ele>104.0</ele><time>2026-03-31T16:38:05Z</time></trkpt><trkpt lat="49.013090371647216" lon="2.4921429120679868"><ele>104.0</ele><time>2026-03-31T16:38:06Z</time></trkpt><trkpt lat="49.012898122828844" lon="2.4920552689539752"><ele>104.0</ele><time>2026-03-31T16:38:07Z</time></trkpt><trkpt lat="49.0127084288965" lon="2.4919657257794934"><ele>104.0</ele><time>2026-03-31T16:38:08Z</time></trkpt><trkpt lat="49.01251865939619" lon="2.4918748701561104"><ele>104.0</ele><time>2026-03-31T16:38:09Z</time></trkpt><trkpt lat="49.01233754660223" lon="2.4917801817607312"><ele>104.0</ele><time>2026-03-31T16:38:10Z</time></trkpt><trkpt lat="49.01216069523603" lon="2.491682997109134"><ele>104.0</ele><time>2026-03-31T16:38:11Z</time></trkpt><trkpt lat="49.01198889989967" lon="2.491590663324541"><ele>104.0</ele><time>2026-03-31T16:38:12Z</time></trkpt><trkpt lat="49.011815500585875" lon="2.49149939639559"><ele>104.0</ele><time>2026-03-31T16:38:13Z</time></trkpt><trkpt lat="49.011650923253406" lon="2.49141612300844"><ele>103.66666666666666</ele><time>2026-03-31T16:38:14Z</time></trkpt><trkpt lat="49.01148847697837" lon="2.491337651024265"><ele>103.33333333333334</ele><time>2026-03-31T16:38:15Z</time></trkpt><trkpt lat="49.01133107607127" lon="2.4912655075632237"><ele>103.0</ele><time>2026-03-31T16:38:16Z</time></trkpt><trkpt lat="49.011186345231756" lon="2.49121033247852"><ele>103.0</ele><time>2026-03-31T16:38:17Z</time></trkpt><trkpt lat="49.01104978341225" lon="2.4911535920788603"><ele>103.0</ele><time>2026-03-31T16:38:18Z</time></trkpt><trkpt lat="49.01092059577459" lon="2.4910890490002653"><ele>103.0</ele><time>2026-03-31T16:38:19Z</time></trkpt><trkpt lat="49.010802351146104" lon="2.491004145629248"><ele>103.0</ele><time>2026-03-31T16:38:20Z</time></trkpt><trkpt lat="49.01071346322213" lon="2.4908928998118727"><ele>103.00000000000001</ele><time>2026-03-31T16:38:21Z</time></trkpt><trkpt lat="49.01064197175512" lon="2.490778796634095"><ele>103.0</ele><time>2026-03-31T16:38:22Z</time></trkpt><trkpt lat="49.01059477446597" lon="2.4906583460551586"><ele>103.0</ele><time>2026-03-31T16:38:23Z</time></trkpt><trkpt lat="49.01058171276441" lon="2.490535871972063"><ele>103.0</ele><time>2026-03-31T16:38:24Z</time></trkpt><trkpt lat="49.01058605573246" lon="2.4904253042056306"><ele>103.00000000000001</ele><time>2026-03-31T16:38:25Z</time></trkpt><trkpt lat="49.01059885269912" lon="2.4903260309876756"><ele>103.0</ele><time>2026-03-31T16:38:26Z</time></trkpt><trkpt lat="49.01061851067185" lon="2.490175445818177"><ele>102.83333333333334</ele><time>2026-03-31T16:38:28Z</time></trkpt><trkpt lat="49.01062161924958" lon="2.4900662582911353"><ele>102.66666666666667</ele><time>2026-03-31T16:38:30.999Z</time></trkpt><trkpt lat="49.01065331024524" lon="2.4899363244760715"><ele>102.5</ele><time>2026-03-31T16:38:33.999Z</time></trkpt><trkpt lat="49.010648181230394" lon="2.48981708002609"><ele>102.33333333333334</ele><time>2026-03-31T16:38:35.999Z</time></trkpt><trkpt lat="49.01068861910545" lon="2.489716042189299"><ele>102.16666666666667</ele><time>2026-03-31T16:38:37.999Z</time></trkpt><trkpt lat="49.01072318886472" lon="2.4895940340328244"><ele>102.0</ele><time>2026-03-31T16:38:39.999Z</time></trkpt><trkpt lat="49.0107534436857" lon="2.48944496574411"><ele>102.0</ele><time>2026-03-31T16:38:41.999Z</time></trkpt><trkpt lat="49.01080651761743" lon="2.489337351088476"><ele>102.0</ele><time>2026-03-31T16:38:43.999Z</time></trkpt><trkpt lat="49.010827559157285" lon="2.4892407107365666"><ele>102.0</ele><time>2026-03-31T16:38:45.999Z</time></trkpt><trkpt lat="49.010904761247936" lon="2.4891670667139216"><ele>102.0</ele><time>2026-03-31T16:38:47.999Z</time></trkpt><trkpt lat="49.010987150276144" lon="2.4891065358099964"><ele>102.0</ele><time>2026-03-31T16:38:49.999Z</time></trkpt><trkpt lat="49.01103957862442" lon="2.489044189791785"><ele>102.0</ele><time>2026-03-31T16:38:51.999Z</time></trkpt><trkpt lat="49.01108395096851" lon="2.4889699213962317"><ele>101.8</ele><time>2026-03-31T16:38:55.999Z</time></trkpt><trkpt lat="49.011117359421284" lon="2.4888692215697636"><ele>101.6</ele><time>2026-03-31T16:38:58.999Z</time></trkpt><trkpt lat="49.01115900357603" lon="2.4887469556584856"><ele>101.39999999999999</ele><time>2026-03-31T16:39:00.999Z</time></trkpt><trkpt lat="49.01113131571236" lon="2.488653539047262"><ele>101.19999999999999</ele><time>2026-03-31T16:39:01.999Z</time></trkpt><trkpt lat="49.01110417558916" lon="2.488470641733909"><ele>101.0</ele><time>2026-03-31T16:39:03.999Z</time></trkpt><trkpt lat="49.01101489881646" lon="2.488359223109389"><ele>101.0</ele><time>2026-03-31T16:39:05.999Z</time></trkpt><trkpt lat="49.010911930139336" lon="2.48828230344646"><ele>101.0</ele><time>2026-03-31T16:39:07.999Z</time></trkpt><trkpt lat="49.010836704455286" lon="2.4882065126221278"><ele>101.0</ele><time>2026-03-31T16:39:09.999Z</time></trkpt><trkpt lat="49.01080559930802" lon="2.488070780268955"><ele>101.0</ele><time>2026-03-31T16:39:11.999Z</time></trkpt><trkpt lat="49.01079039781364" lon="2.4879162886537607"><ele>101.0</ele><time>2026-03-31T16:39:13.999Z</time></trkpt><trkpt lat="49.010788463700806" lon="2.4877573460215596"><ele>100.8</ele><time>2026-03-31T16:39:15.999Z</time></trkpt><trkpt lat="49.01079019924684" lon="2.487605576288103"><ele>100.6</ele><time>2026-03-31T16:39:17.999Z</time></trkpt><trkpt lat="49.0107932577889" lon="2.487457358527632"><ele>100.4</ele><time>2026-03-31T16:39:19.999Z</time></trkpt><trkpt lat="49.01081924597059" lon="2.4872475578542543"><ele>100.2</ele><time>2026-03-31T16:39:21.999Z</time></trkpt><trkpt lat="49.01083037012961" lon="2.487132291712162"><ele>100.0</ele><time>2026-03-31T16:39:22.999Z</time></trkpt><trkpt lat="49.010843720108745" lon="2.487001997428153"><ele>99.50000000000001</ele><time>2026-03-31T16:39:23.999Z</time></trkpt><trkpt lat="49.010856592179245" lon="2.4868811133442343"><ele>99.0</ele><time>2026-03-31T16:39:24.999Z</time></trkpt><trkpt lat="49.01084630741274" lon="2.486772047566266"><ele>98.5</ele><time>2026-03-31T16:39:26.001Z</time></trkpt><trkpt lat="49.01085320400107" lon="2.4866502069879086"><ele>98.0</ele><time>2026-03-31T16:39:27.001Z</time></trkpt><trkpt lat="49.01089136209514" lon="2.4865261307527042"><ele>97.50000000000001</ele><time>2026-03-31T16:39:28.001Z</time></trkpt><trkpt lat="49.01090399452224" lon="2.486407175387053"><ele>97.0</ele><time>2026-03-31T16:39:29.001Z</time></trkpt><trkpt lat="49.010916121168236" lon="2.4862929828622593"><ele>97.00000000000001</ele><time>2026-03-31T16:39:30.001Z</time></trkpt><trkpt lat="49.01092904817795" lon="2.4861780905994935"><ele>97.0</ele><time>2026-03-31T16:39:31.001Z</time></trkpt><trkpt lat="49.010940740681214" lon="2.4860748543142246"><ele>97.0</ele><time>2026-03-31T16:39:32.001Z</time></trkpt><trkpt lat="49.0109538468687" lon="2.485966237164862"><ele>97.0</ele><time>2026-03-31T16:39:33.001Z</time></trkpt><trkpt lat="49.010960885564344" lon="2.4857912885756157"><ele>97.00000000000001</ele><time>2026-03-31T16:39:35.001Z</time></trkpt><trkpt lat="49.01098386445523" lon="2.485641124709005"><ele>97.0</ele><time>2026-03-31T16:39:37Z</time></trkpt><trkpt lat="49.0110041126236" lon="2.485490929857608"><ele>97.00000000000001</ele><time>2026-03-31T16:39:39Z</time></trkpt><trkpt lat="49.011023386479216" lon="2.485341810071401"><ele>97.0</ele><time>2026-03-31T16:39:41Z</time></trkpt><trkpt lat="49.01103760561029" lon="2.485244806787193"><ele>97.0</ele><time>2026-03-31T16:39:42Z</time></trkpt><trkpt lat="49.01105157642192" lon="2.485139401195035"><ele>97.0</ele><time>2026-03-31T16:39:43Z</time></trkpt><trkpt lat="49.011063985401236" lon="2.485023636237017"><ele>97.00000000000001</ele><time>2026-03-31T16:39:44Z</time></trkpt><trkpt lat="49.011082232416776" lon="2.484900608581387"><ele>97.0</ele><time>2026-03-31T16:39:45Z</time></trkpt><trkpt lat="49.01109747660891" lon="2.4847901487777686"><ele>97.0</ele><time>2026-03-31T16:39:46Z</time></trkpt><trkpt lat="49.011109765825005" lon="2.4846827853438995"><ele>97.0</ele><time>2026-03-31T16:39:47Z</time></trkpt><trkpt lat="49.01112371069482" lon="2.484572289349784"><ele>97.0</ele><time>2026-03-31T16:39:48Z</time></trkpt><trkpt lat="49.011137628176435" lon="2.484457530827954"><ele>97.0</ele><time>2026-03-31T16:39:49Z</time></trkpt><trkpt lat="49.011148741983824" lon="2.4843432302656336"><ele>97.0</ele><time>2026-03-31T16:39:50Z</time></trkpt><trkpt lat="49.01116460950743" lon="2.484231477500488"><ele>97.0</ele><time>2026-03-31T16:39:51Z</time></trkpt><trkpt lat="49.0111753716385" lon="2.484117462884901"><ele>97.0</ele><time>2026-03-31T16:39:52Z</time></trkpt><trkpt lat="49.011184626963775" lon="2.48400695434013"><ele>97.00000000000001</ele><time>2026-03-31T16:39:53Z</time></trkpt><trkpt lat="49.01119326073569" lon="2.4838997242750707"><ele>97.0</ele><time>2026-03-31T16:39:54Z</time></trkpt><trkpt lat="49.011199099437036" lon="2.483797536185273"><ele>97.0</ele><time>2026-03-31T16:39:55Z</time></trkpt><trkpt lat="49.01120206266163" lon="2.4836955528027573"><ele>97.0</ele><time>2026-03-31T16:39:56Z</time></trkpt><trkpt lat="49.01120030733281" lon="2.4835167449094753"><ele>97.00000000000001</ele><time>2026-03-31T16:39:58Z</time></trkpt><trkpt lat="49.01120265091609" lon="2.4833619768214827"><ele>97.0</ele><time>2026-03-31T16:40:00Z</time></trkpt><trkpt lat="49.011225523880846" lon="2.4832106353937577"><ele>97.0</ele><time>2026-03-31T16:40:02Z</time></trkpt><trkpt lat="49.011217913645176" lon="2.4830428012636845"><ele>97.0</ele><time>2026-03-31T16:40:04Z</time></trkpt><trkpt lat="49.01123458953958" lon="2.4828727471809366"><ele>97.0</ele><time>2026-03-31T16:40:06Z</time></trkpt><trkpt lat="49.01124044411632" lon="2.4827066209415163"><ele>97.0</ele><time>2026-03-31T16:40:08Z</time></trkpt><trkpt lat="49.01124659042164" lon="2.4826077164341096"><ele>97.0</ele><time>2026-03-31T16:40:09Z</time></trkpt><trkpt lat="49.01125132015851" lon="2.482506961721905"><ele>96.83333333333334</ele><time>2026-03-31T16:40:10Z</time></trkpt><trkpt lat="49.01125528506272" lon="2.4824107868160263"><ele>96.66666666666667</ele><time>2026-03-31T16:40:11Z</time></trkpt><trkpt lat="49.01127666431539" lon="2.4822136332155513"><ele>96.5</ele><time>2026-03-31T16:40:13Z</time></trkpt><trkpt lat="49.01128208175916" lon="2.4820996245654774"><ele>96.33333333333334</ele><time>2026-03-31T16:40:14Z</time></trkpt><trkpt lat="49.01127634109244" lon="2.4819706698045785"><ele>96.16666666666667</ele><time>2026-03-31T16:40:15Z</time></trkpt><trkpt lat="49.01128244896702" lon="2.4818338853506874"><ele>96.0</ele><time>2026-03-31T16:40:16Z</time></trkpt><trkpt lat="49.011290284999845" lon="2.4816913111004677"><ele>95.4</ele><time>2026-03-31T16:40:17Z</time></trkpt><trkpt lat="49.01129975125416" lon="2.4815514054202796"><ele>94.8</ele><time>2026-03-31T16:40:18Z</time></trkpt><trkpt lat="49.01131311256625" lon="2.4814115291067793"><ele>94.2</ele><time>2026-03-31T16:40:19Z</time></trkpt><trkpt lat="49.01132226664985" lon="2.481260307357003"><ele>93.60000000000001</ele><time>2026-03-31T16:40:20Z</time></trkpt><trkpt lat="49.01133079478378" lon="2.481107006085669"><ele>93.0</ele><time>2026-03-31T16:40:20.999Z</time></trkpt><trkpt lat="49.01134147824554" lon="2.4809588025098965"><ele>93.0</ele><time>2026-03-31T16:40:21.999Z</time></trkpt><trkpt lat="49.01135344294555" lon="2.480807913230748"><ele>93.0</ele><time>2026-03-31T16:40:22.999Z</time></trkpt><trkpt lat="49.0113620592513" lon="2.4806554929271636"><ele>93.0</ele><time>2026-03-31T16:40:23.999Z</time></trkpt><trkpt lat="49.011376678950796" lon="2.480501859657234"><ele>93.0</ele><time>2026-03-31T16:40:24.999Z</time></trkpt><trkpt lat="49.01139412154252" lon="2.480348753737952"><ele>93.0</ele><time>2026-03-31T16:40:25.999Z</time></trkpt><trkpt lat="49.01140794580168" lon="2.4801930920869477"><ele>92.80000000000001</ele><time>2026-03-31T16:40:26.999Z</time></trkpt><trkpt lat="49.01142204834226" lon="2.480037137807061"><ele>92.6</ele><time>2026-03-31T16:40:27.999Z</time></trkpt><trkpt lat="49.01143791378582" lon="2.4798796357118347"><ele>92.4</ele><time>2026-03-31T16:40:28.999Z</time></trkpt><trkpt lat="49.01145100978562" lon="2.4797177087383244"><ele>92.19999999999999</ele><time>2026-03-31T16:40:29.999Z</time></trkpt><trkpt lat="49.0114655977498" lon="2.4795546359876357"><ele>92.0</ele><time>2026-03-31T16:40:30.999Z</time></trkpt><trkpt lat="49.01148266869145" lon="2.479388900395285"><ele>91.8</ele><time>2026-03-31T16:40:31.999Z</time></trkpt><trkpt lat="49.01150275643185" lon="2.4792230791754886"><ele>91.6</ele><time>2026-03-31T16:40:32.999Z</time></trkpt><trkpt lat="49.011523540627245" lon="2.479058380353322"><ele>91.39999999999999</ele><time>2026-03-31T16:40:33.999Z</time></trkpt><trkpt lat="49.01154873001827" lon="2.4788950260805973"><ele>91.19999999999999</ele><time>2026-03-31T16:40:34.999Z</time></trkpt><trkpt lat="49.011573612198646" lon="2.4787283763857157"><ele>91.0</ele><time>2026-03-31T16:40:35.999Z</time></trkpt><trkpt lat="49.011597530298694" lon="2.478561307035595"><ele>90.25</ele><time>2026-03-31T16:40:36.999Z</time></trkpt><trkpt lat="49.011622579052215" lon="2.4783885946306743"><ele>89.5</ele><time>2026-03-31T16:40:37.999Z</time></trkpt><trkpt lat="49.01164975219045" lon="2.478216354853902"><ele>88.75</ele><time>2026-03-31T16:40:38.999Z</time></trkpt><trkpt lat="49.01167849074432" lon="2.478044753483958"><ele>88.0</ele><time>2026-03-31T16:40:39.999Z</time></trkpt><trkpt lat="49.011710405422484" lon="2.4778728457765675"><ele>87.75</ele><time>2026-03-31T16:40:40.999Z</time></trkpt><trkpt lat="49.01174436995178" lon="2.4777048968813307"><ele>87.5</ele><time>2026-03-31T16:40:41.999Z</time></trkpt><trkpt lat="49.01178173230979" lon="2.4775429810759264"><ele>87.25</ele><time>2026-03-31T16:40:42.999Z</time></trkpt><trkpt lat="49.0118215089569" lon="2.4773844520367767"><ele>87.0</ele><time>2026-03-31T16:40:43.999Z</time></trkpt><trkpt lat="49.011861374909536" lon="2.4772275789304268"><ele>87.0</ele><time>2026-03-31T16:40:44.999Z</time></trkpt><trkpt lat="49.01190123632814" lon="2.4770714805548764"><ele>87.0</ele><time>2026-03-31T16:40:45.999Z</time></trkpt><trkpt lat="49.01194240480937" lon="2.4769169426045674"><ele>87.0</ele><time>2026-03-31T16:40:46.999Z</time></trkpt><trkpt lat="49.01198603921573" lon="2.4767657545150206"><ele>87.0</ele><time>2026-03-31T16:40:47.999Z</time></trkpt><trkpt lat="49.01202360764217" lon="2.47661303084286"><ele>87.0</ele><time>2026-03-31T16:40:48.999Z</time></trkpt><trkpt lat="49.01205950646728" lon="2.4764576755120995"><ele>87.0</ele><time>2026-03-31T16:40:49.999Z</time></trkpt><trkpt lat="49.01209349794386" lon="2.4763004571092617"><ele>87.0</ele><time>2026-03-31T16:40:50.999Z</time></trkpt><trkpt lat="49.01212392270716" lon="2.4761417792494393"><ele>87.0</ele><time>2026-03-31T16:40:51.999Z</time></trkpt><trkpt lat="49.01215226193948" lon="2.475982235011122"><ele>87.0</ele><time>2026-03-31T16:40:52.999Z</time></trkpt><trkpt lat="49.012183290706595" lon="2.475821338638002"><ele>87.0</ele><time>2026-03-31T16:40:53.999Z</time></trkpt><trkpt lat="49.01221103761379" lon="2.4756568451496532"><ele>86.5</ele><time>2026-03-31T16:40:54.999Z</time></trkpt><trkpt lat="49.01223292301258" lon="2.4754862429480564"><ele>86.0</ele><time>2026-03-31T16:40:55.999Z</time></trkpt><trkpt lat="49.01225213401479" lon="2.475312508753027"><ele>85.5</ele><time>2026-03-31T16:40:56.999Z</time></trkpt><trkpt lat="49.01227087135725" lon="2.475137016007021"><ele>85.0</ele><time>2026-03-31T16:40:57.999Z</time></trkpt><trkpt lat="49.01228932263547" lon="2.4749566055825984"><ele>84.0</ele><time>2026-03-31T16:40:58.999Z</time></trkpt><trkpt lat="49.01230639796147" lon="2.474774338062918"><ele>83.0</ele><time>2026-03-31T16:40:59.999Z</time></trkpt><trkpt lat="49.01232001391303" lon="2.4745853452795954"><ele>82.0</ele><time>2026-03-31T16:41:00.999Z</time></trkpt><trkpt lat="49.012330469021336" lon="2.474401074200527"><ele>81.0</ele><time>2026-03-31T16:41:01.999Z</time></trkpt><trkpt lat="49.01234105949365" lon="2.474219590207638"><ele>80.75</ele><time>2026-03-31T16:41:02.999Z</time></trkpt><trkpt lat="49.01235159659877" lon="2.4740430717507222"><ele>80.5</ele><time>2026-03-31T16:41:03.999Z</time></trkpt><trkpt lat="49.0123657918918" lon="2.473863234853421"><ele>80.25</ele><time>2026-03-31T16:41:04.999Z</time></trkpt><trkpt lat="49.012380393682825" lon="2.473688532666435"><ele>80.0</ele><time>2026-03-31T16:41:05.999Z</time></trkpt><trkpt lat="49.012395343838676" lon="2.4735178252064673"><ele>79.2</ele><time>2026-03-31T16:41:06.999Z</time></trkpt><trkpt lat="49.012408617279725" lon="2.473360594254014"><ele>78.4</ele><time>2026-03-31T16:41:07.999Z</time></trkpt><trkpt lat="49.01242407560522" lon="2.4732090507029394"><ele>77.6</ele><time>2026-03-31T16:41:08.999Z</time></trkpt><trkpt lat="49.01243842258433" lon="2.4730605394245586"><ele>76.8</ele><time>2026-03-31T16:41:09.999Z</time></trkpt><trkpt lat="49.01245533822609" lon="2.4729131689993666"><ele>76.0</ele><time>2026-03-31T16:41:10.999Z</time></trkpt><trkpt lat="49.01247342566841" lon="2.4727683123870943"><ele>74.33333333333333</ele><time>2026-03-31T16:41:11.999Z</time></trkpt><trkpt lat="49.01249667978777" lon="2.472633119013007"><ele>72.66666666666666</ele><time>2026-03-31T16:41:12.999Z</time></trkpt><trkpt lat="49.01251711627723" lon="2.472501255082565"><ele>71.0</ele><time>2026-03-31T16:41:13.999Z</time></trkpt><trkpt lat="49.012535502403864" lon="2.4723727867013707"><ele>69.33333333333333</ele><time>2026-03-31T16:41:14.999Z</time></trkpt><trkpt lat="49.0125499545064" lon="2.4722554405165322"><ele>67.66666666666667</ele><time>2026-03-31T16:41:15.999Z</time></trkpt><trkpt lat="49.012557238334864" lon="2.472146493850503"><ele>66.0</ele><time>2026-03-31T16:41:16.999Z</time></trkpt><trkpt lat="49.01256240711634" lon="2.472039565655265"><ele>65.0</ele><time>2026-03-31T16:41:17.999Z</time></trkpt><trkpt lat="49.01259020312017" lon="2.4719366668928178"><ele>63.99999999999999</ele><time>2026-03-31T16:41:18.999Z</time></trkpt><trkpt lat="49.01261909078435" lon="2.471809179317779"><ele>62.99999999999999</ele><time>2026-03-31T16:41:20.999Z</time></trkpt><trkpt lat="49.012665794705214" lon="2.4717139741447904"><ele>62.0</ele><time>2026-03-31T16:41:23.998Z</time></trkpt><trkpt lat="49.01275408871382" lon="2.471636598350466"><ele>61.0</ele><time>2026-03-31T16:41:25.998Z</time></trkpt><trkpt lat="49.01287986120888" lon="2.471661755729312"><ele>60.99999999999999</ele><time>2026-03-31T16:41:27.998Z</time></trkpt><trkpt lat="49.01295176168937" lon="2.4716523968858097"><ele>61.0</ele><time>2026-03-31T16:41:28.998Z</time></trkpt><trkpt lat="49.013024777498146" lon="2.4716175297464136"><ele>61.0</ele><time>2026-03-31T16:41:29.998Z</time></trkpt><trkpt lat="49.01309579307116" lon="2.4715587130071874"><ele>61.0</ele><time>2026-03-31T16:41:30.998Z</time></trkpt><trkpt lat="49.01315761700721" lon="2.4714452687137896"><ele>60.99999999999999</ele><time>2026-03-31T16:41:32Z</time></trkpt><trkpt lat="49.01319509935453" lon="2.471316666725451"><ele>61.0</ele><time>2026-03-31T16:41:33Z</time></trkpt><trkpt lat="49.01321063789588" lon="2.471186938053142"><ele>60.8</ele><time>2026-03-31T16:41:34Z</time></trkpt><trkpt lat="49.01319298117479" lon="2.4710408667122823"><ele>60.599999999999994</ele><time>2026-03-31T16:41:35Z</time></trkpt><trkpt lat="49.01315451861311" lon="2.470919293357257"><ele>60.4</ele><time>2026-03-31T16:41:36Z</time></trkpt><trkpt lat="49.01309692399581" lon="2.470816077860935"><ele>60.2</ele><time>2026-03-31T16:41:37Z</time></trkpt><trkpt lat="49.013018348939106" lon="2.470751022447876"><ele>60.0</ele><time>2026-03-31T16:41:38Z</time></trkpt><trkpt lat="49.01293410619039" lon="2.4706814301982467"><ele>60.0</ele><time>2026-03-31T16:41:39Z</time></trkpt><trkpt lat="49.0128446147549" lon="2.4706405581425184"><ele>60.0</ele><time>2026-03-31T16:41:40Z</time></trkpt><trkpt lat="49.01274850494402" lon="2.470586016091973"><ele>60.0</ele><time>2026-03-31T16:41:41Z</time></trkpt><trkpt lat="49.012660149923235" lon="2.470496078783449"><ele>60.0</ele><time>2026-03-31T16:41:42Z</time></trkpt><trkpt lat="49.01256230614992" lon="2.470388138210995"><ele>60.0</ele><time>2026-03-31T16:41:43Z</time></trkpt><trkpt lat="49.01245098375422" lon="2.470267335197918"><ele>59.66666666666667</ele><time>2026-03-31T16:41:44Z</time></trkpt><trkpt lat="49.01233377176012" lon="2.470127577531144"><ele>59.333333333333336</ele><time>2026-03-31T16:41:45Z</time></trkpt><trkpt lat="49.01220754405466" lon="2.4699760437939653"><ele>59.0</ele><time>2026-03-31T16:41:46Z</time></trkpt><trkpt lat="49.01207574656823" lon="2.4698194034585077"><ele>59.0</ele><time>2026-03-31T16:41:47Z</time></trkpt><trkpt lat="49.01194008722565" lon="2.4696459482633024"><ele>59.0</ele><time>2026-03-31T16:41:48Z</time></trkpt><trkpt lat="49.01180693973668" lon="2.4694753869534436"><ele>59.0</ele><time>2026-03-31T16:41:49Z</time></trkpt><trkpt lat="49.0116730806927" lon="2.469302389595584"><ele>58.0</ele><time>2026-03-31T16:41:50Z</time></trkpt><trkpt lat="49.01154357941271" lon="2.4691374335584695"><ele>57.0</ele><time>2026-03-31T16:41:51Z</time></trkpt><trkpt lat="49.011416308126215" lon="2.4689768808001524"><ele>56.0</ele><time>2026-03-31T16:41:52Z</time></trkpt><trkpt lat="49.01129169063524" lon="2.468818616085465"><ele>55.66666666666667</ele><time>2026-03-31T16:41:53Z</time></trkpt><trkpt lat="49.01117016646839" lon="2.4686593564457846"><ele>55.33333333333333</ele><time>2026-03-31T16:41:54Z</time></trkpt><trkpt lat="49.011048732766334" lon="2.4684931936301715"><ele>55.0</ele><time>2026-03-31T16:41:55Z</time></trkpt><trkpt lat="49.010928227467055" lon="2.468331510940304"><ele>55.0</ele><time>2026-03-31T16:41:56Z</time></trkpt><trkpt lat="49.01080462059104" lon="2.4681702309009044"><ele>55.0</ele><time>2026-03-31T16:41:57Z</time></trkpt><trkpt lat="49.01068327650911" lon="2.4680030720379937"><ele>55.0</ele><time>2026-03-31T16:41:58Z</time></trkpt><trkpt lat="49.01055903010915" lon="2.4678426181319684"><ele>56.0</ele><time>2026-03-31T16:41:59Z</time></trkpt><trkpt lat="49.01043895603877" lon="2.4676771221144413"><ele>57.0</ele><time>2026-03-31T16:42:00Z</time></trkpt><trkpt lat="49.010314969107064" lon="2.467516117324932"><ele>58.0</ele><time>2026-03-31T16:42:01Z</time></trkpt><trkpt lat="49.01019242349071" lon="2.4673532789583126"><ele>58.0</ele><time>2026-03-31T16:42:02Z</time></trkpt><trkpt lat="49.01006975653534" lon="2.4671884786096947"><ele>58.0</ele><time>2026-03-31T16:42:03Z</time></trkpt><trkpt lat="49.00994436686933" lon="2.4670201565636005"><ele>58.0</ele><time>2026-03-31T16:42:04Z</time></trkpt><trkpt lat="49.0098197156015" lon="2.4668473997568"><ele>58.33333333333333</ele><time>2026-03-31T16:42:05Z</time></trkpt><trkpt lat="49.00969604042329" lon="2.4666738425728547"><ele>58.66666666666667</ele><time>2026-03-31T16:42:06Z</time></trkpt><trkpt lat="49.00956980604851" lon="2.4665042714628624"><ele>59.0</ele><time>2026-03-31T16:42:07Z</time></trkpt><trkpt lat="49.009445180293994" lon="2.466333602785231"><ele>59.333333333333336</ele><time>2026-03-31T16:42:08Z</time></trkpt><trkpt lat="49.009324019276235" lon="2.466160553826208"><ele>59.66666666666667</ele><time>2026-03-31T16:42:09Z</time></trkpt><trkpt lat="49.009204665098494" lon="2.466006675480114"><ele>60.0</ele><time>2026-03-31T16:42:10Z</time></trkpt><trkpt lat="49.00909621855466" lon="2.4658498439668852"><ele>60.25</ele><time>2026-03-31T16:42:11Z</time></trkpt><trkpt lat="49.00900790137254" lon="2.465686070792308"><ele>60.5</ele><time>2026-03-31T16:42:12Z</time></trkpt><trkpt lat="49.00891304412057" lon="2.465555769941203"><ele>60.75</ele><time>2026-03-31T16:42:13Z</time></trkpt><trkpt lat="49.00881509828112" lon="2.465448742296629"><ele>61.0</ele><time>2026-03-31T16:42:14Z</time></trkpt><trkpt lat="49.00872848718139" lon="2.4653433628642363"><ele>61.4</ele><time>2026-03-31T16:42:15Z</time></trkpt><trkpt lat="49.008647352678956" lon="2.4652485146474645"><ele>61.8</ele><time>2026-03-31T16:42:16Z</time></trkpt><trkpt lat="49.00857171457971" lon="2.4651612033670554"><ele>62.199999999999996</ele><time>2026-03-31T16:42:17Z</time></trkpt><trkpt lat="49.00851532041608" lon="2.465074564902233"><ele>62.599999999999994</ele><time>2026-03-31T16:42:18Z</time></trkpt><trkpt lat="49.00844427023561" lon="2.464893125427875"><ele>63.0</ele><time>2026-03-31T16:42:20Z</time></trkpt><trkpt lat="49.00839715916028" lon="2.464777474115986"><ele>63.75</ele><time>2026-03-31T16:42:21Z</time></trkpt><trkpt lat="49.00829463040498" lon="2.4647493508939324"><ele>64.5</ele><time>2026-03-31T16:42:22Z</time></trkpt><trkpt lat="49.00818655352447" lon="2.464735942345265"><ele>65.25</ele><time>2026-03-31T16:42:22.999Z</time></trkpt><trkpt lat="49.008073727284305" lon="2.464693920298016"><ele>66.0</ele><time>2026-03-31T16:42:23.999Z</time></trkpt><trkpt lat="49.00795963465497" lon="2.464610907604639"><ele>66.33333333333333</ele><time>2026-03-31T16:42:24.999Z</time></trkpt><trkpt lat="49.00782873921738" lon="2.4645244050040507"><ele>66.66666666666666</ele><time>2026-03-31T16:42:25.999Z</time></trkpt><trkpt lat="49.00768838664838" lon="2.4644019261843906"><ele>67.0</ele><time>2026-03-31T16:42:26.999Z</time></trkpt><trkpt lat="49.007509809919" lon="2.464336264110942"><ele>67.66666666666666</ele><time>2026-03-31T16:42:27.999Z</time></trkpt><trkpt lat="49.00733948231576" lon="2.464227813540554"><ele>68.33333333333333</ele><time>2026-03-31T16:42:28.999Z</time></trkpt><trkpt lat="49.00716313186047" lon="2.464135200147217"><ele>69.0</ele><time>2026-03-31T16:42:29.999Z</time></trkpt><trkpt lat="49.00697125450222" lon="2.4640610401682865"><ele>69.0</ele><time>2026-03-31T16:42:30.999Z</time></trkpt><trkpt lat="49.006769512868786" lon="2.4640029230217793"><ele>69.0</ele><time>2026-03-31T16:42:31.999Z</time></trkpt><trkpt lat="49.006578414943704" lon="2.4639508009512707"><ele>69.0</ele><time>2026-03-31T16:42:32.999Z</time></trkpt><trkpt lat="49.00640608891837" lon="2.4639083597377387"><ele>69.33333333333333</ele><time>2026-03-31T16:42:33.999Z</time></trkpt><trkpt lat="49.00623204239094" lon="2.4638829774312603"><ele>69.66666666666666</ele><time>2026-03-31T16:42:34.999Z</time></trkpt><trkpt lat="49.00605340443927" lon="2.4638739488257535"><ele>70.0</ele><time>2026-03-31T16:42:35.999Z</time></trkpt><trkpt lat="49.00588378664391" lon="2.46387142207825"><ele>70.33333333333333</ele><time>2026-03-31T16:42:36.999Z</time></trkpt><trkpt lat="49.00571361026961" lon="2.463882029012401"><ele>70.66666666666667</ele><time>2026-03-31T16:42:37.999Z</time></trkpt><trkpt lat="49.00553202797371" lon="2.4638955317330713"><ele>71.0</ele><time>2026-03-31T16:42:38.999Z</time></trkpt><trkpt lat="49.00535243196049" lon="2.463915505836609"><ele>71.0</ele><time>2026-03-31T16:42:39.999Z</time></trkpt><trkpt lat="49.005168154033754" lon="2.4639486038160943"><ele>71.0</ele><time>2026-03-31T16:42:40.999Z</time></trkpt><trkpt lat="49.00498949242037" lon="2.4639846563903385"><ele>71.0</ele><time>2026-03-31T16:42:41.999Z</time></trkpt><trkpt lat="49.004822517087504" lon="2.464014664023226"><ele>71.33333333333334</ele><time>2026-03-31T16:42:42.999Z</time></trkpt><trkpt lat="49.00465642389731" lon="2.464035241002124"><ele>71.66666666666667</ele><time>2026-03-31T16:42:43.999Z</time></trkpt><trkpt lat="49.00450029528789" lon="2.4640538722422134"><ele>72.0</ele><time>2026-03-31T16:42:44.999Z</time></trkpt><trkpt lat="49.00434201187224" lon="2.4640782179989777"><ele>72.0</ele><time>2026-03-31T16:42:45.999Z</time></trkpt><trkpt lat="49.00419662165733" lon="2.4641059110787253"><ele>72.0</ele><time>2026-03-31T16:42:46.999Z</time></trkpt><trkpt lat="49.00404768209091" lon="2.4641307546235143"><ele>72.0</ele><time>2026-03-31T16:42:47.999Z</time></trkpt><trkpt lat="49.00389708694575" lon="2.4641496363080653"><ele>72.0</ele><time>2026-03-31T16:42:48.999Z</time></trkpt><trkpt lat="49.003745217713515" lon="2.4641710339174776"><ele>72.33333333333333</ele><time>2026-03-31T16:42:49.999Z</time></trkpt><trkpt lat="49.003590828119854" lon="2.464196450345472"><ele>72.66666666666666</ele><time>2026-03-31T16:42:50.999Z</time></trkpt><trkpt lat="49.003433989055296" lon="2.46422069625301"><ele>73.0</ele><time>2026-03-31T16:42:51.999Z</time></trkpt><trkpt lat="49.003275937461424" lon="2.464242773035153"><ele>73.5</ele><time>2026-03-31T16:42:52.999Z</time></trkpt><trkpt lat="49.00311852440618" lon="2.4642651482451"><ele>74.0</ele><time>2026-03-31T16:42:53.999Z</time></trkpt><trkpt lat="49.00297387623192" lon="2.464293345046423"><ele>74.5</ele><time>2026-03-31T16:42:54.999Z</time></trkpt><trkpt lat="49.00283182411727" lon="2.4643143527672"><ele>75.0</ele><time>2026-03-31T16:42:55.999Z</time></trkpt><trkpt lat="49.002694762488765" lon="2.464335840493789"><ele>75.0</ele><time>2026-03-31T16:42:56.999Z</time></trkpt><trkpt lat="49.00256044781807" lon="2.464357613122129"><ele>75.0</ele><time>2026-03-31T16:42:57.999Z</time></trkpt><trkpt lat="49.002426048467605" lon="2.4643788795764"><ele>75.0</ele><time>2026-03-31T16:42:58.999Z</time></trkpt><trkpt lat="49.00230494185403" lon="2.4643985309694796"><ele>75.0</ele><time>2026-03-31T16:42:59.999Z</time></trkpt><trkpt lat="49.0021902486254" lon="2.464417849101113"><ele>75.2</ele><time>2026-03-31T16:43:00.999Z</time></trkpt><trkpt lat="49.00208370242112" lon="2.4644347183594806"><ele>75.4</ele><time>2026-03-31T16:43:01.999Z</time></trkpt><trkpt lat="49.00197937963583" lon="2.464447251759601"><ele>75.6</ele><time>2026-03-31T16:43:02.999Z</time></trkpt><trkpt lat="49.00187994964625" lon="2.4644599113815477"><ele>75.8</ele><time>2026-03-31T16:43:03.999Z</time></trkpt><trkpt lat="49.00177784813169" lon="2.464474183210961"><ele>76.0</ele><time>2026-03-31T16:43:04.999Z</time></trkpt><trkpt lat="49.00167806938114" lon="2.464490164558636"><ele>76.2</ele><time>2026-03-31T16:43:05.999Z</time></trkpt><trkpt lat="49.00158107586902" lon="2.464510397941857"><ele>76.39999999999999</ele><time>2026-03-31T16:43:06.999Z</time></trkpt><trkpt lat="49.00147829199651" lon="2.464527928703143"><ele>76.6</ele><time>2026-03-31T16:43:07.999Z</time></trkpt><trkpt lat="49.00136582664081" lon="2.4645441370923"><ele>76.8</ele><time>2026-03-31T16:43:08.999Z</time></trkpt><trkpt lat="49.001254616426735" lon="2.464560204056537"><ele>77.0</ele><time>2026-03-31T16:43:09.999Z</time></trkpt><trkpt lat="49.00113124410985" lon="2.464581247756572"><ele>77.0</ele><time>2026-03-31T16:43:10.999Z</time></trkpt><trkpt lat="49.00099599383805" lon="2.4646022544135415"><ele>77.0</ele><time>2026-03-31T16:43:11.999Z</time></trkpt><trkpt lat="49.000861109848934" lon="2.4646229274642026"><ele>77.0</ele><time>2026-03-31T16:43:12.999Z</time></trkpt><trkpt lat="49.000721926583154" lon="2.464643780231545"><ele>77.0</ele><time>2026-03-31T16:43:13.999Z</time></trkpt><trkpt lat="49.000583770821194" lon="2.464664589389757"><ele>77.25</ele><time>2026-03-31T16:43:14.999Z</time></trkpt><trkpt lat="49.0004381028898" lon="2.4646925215140825"><ele>77.5</ele><time>2026-03-31T16:43:15.999Z</time></trkpt><trkpt lat="49.00029668039077" lon="2.4647167058600816"><ele>77.75</ele><time>2026-03-31T16:43:16.999Z</time></trkpt><trkpt lat="49.000157727591066" lon="2.464737582824224"><ele>78.0</ele><time>2026-03-31T16:43:17.999Z</time></trkpt><trkpt lat="49.000008308985386" lon="2.464751940027336"><ele>78.0</ele><time>2026-03-31T16:43:18.999Z</time></trkpt><trkpt lat="48.99985502112078" lon="2.464762600591594"><ele>78.0</ele><time>2026-03-31T16:43:19.999Z</time></trkpt><trkpt lat="48.999699677456626" lon="2.4647566422211242"><ele>78.0</ele><time>2026-03-31T16:43:20.998Z</time></trkpt><trkpt lat="48.999551690414435" lon="2.4647400911600643"><ele>78.0</ele><time>2026-03-31T16:43:21.998Z</time></trkpt><trkpt lat="48.99940586240669" lon="2.464723349644191"><ele>78.0</ele><time>2026-03-31T16:43:22.998Z</time></trkpt><trkpt lat="48.99925721206735" lon="2.4646905657768685"><ele>78.0</ele><time>2026-03-31T16:43:23.998Z</time></trkpt><trkpt lat="48.999102959535804" lon="2.464647483042676"><ele>77.66666666666667</ele><time>2026-03-31T16:43:24.998Z</time></trkpt><trkpt lat="48.99894739697201" lon="2.4645928434654825"><ele>77.33333333333334</ele><time>2026-03-31T16:43:25.998Z</time></trkpt><trkpt lat="48.998790874722864" lon="2.4645352301494476"><ele>77.0</ele><time>2026-03-31T16:43:26.998Z</time></trkpt><trkpt lat="48.998640528056804" lon="2.4644627360985214"><ele>77.0</ele><time>2026-03-31T16:43:27.998Z</time></trkpt><trkpt lat="48.99849886749641" lon="2.464378857968783"><ele>77.0</ele><time>2026-03-31T16:43:28.998Z</time></trkpt><trkpt lat="48.998364918796206" lon="2.4642867315427397"><ele>77.0</ele><time>2026-03-31T16:43:29.998Z</time></trkpt><trkpt lat="48.99823564799266" lon="2.4641844949118945"><ele>77.0</ele><time>2026-03-31T16:43:30.998Z</time></trkpt><trkpt lat="48.99810590610212" lon="2.4640784431873217"><ele>76.66666666666667</ele><time>2026-03-31T16:43:31.998Z</time></trkpt><trkpt lat="48.997964607469385" lon="2.463952060997198"><ele>76.33333333333333</ele><time>2026-03-31T16:43:32.998Z</time></trkpt><trkpt lat="48.99782354285778" lon="2.4638209347613618"><ele>76.0</ele><time>2026-03-31T16:43:33.998Z</time></trkpt><trkpt lat="48.9976713651917" lon="2.463676058886453"><ele>76.0</ele><time>2026-03-31T16:43:34.998Z</time></trkpt><trkpt lat="48.9975194019804" lon="2.4635162018239227"><ele>76.0</ele><time>2026-03-31T16:43:35.998Z</time></trkpt><trkpt lat="48.997392323408526" lon="2.4633159073654225"><ele>76.0</ele><time>2026-03-31T16:43:36.998Z</time></trkpt><trkpt lat="48.99725461086815" lon="2.463117029214293"><ele>76.33333333333333</ele><time>2026-03-31T16:43:38Z</time></trkpt><trkpt lat="48.99711895350176" lon="2.462895033102113"><ele>76.66666666666667</ele><time>2026-03-31T16:43:39Z</time></trkpt><trkpt lat="48.99697562348184" lon="2.462652331516836"><ele>77.0</ele><time>2026-03-31T16:43:40Z</time></trkpt><trkpt lat="48.996819756747925" lon="2.4624252710810084"><ele>77.0</ele><time>2026-03-31T16:43:41Z</time></trkpt><trkpt lat="48.996678343029444" lon="2.462186303329414"><ele>77.0</ele><time>2026-03-31T16:43:42Z</time></trkpt><trkpt lat="48.99655117866421" lon="2.4619357492914875"><ele>77.0</ele><time>2026-03-31T16:43:43Z</time></trkpt><trkpt lat="48.99641170756877" lon="2.46168352825025"><ele>76.66666666666667</ele><time>2026-03-31T16:43:44Z</time></trkpt><trkpt lat="48.99627367607144" lon="2.461419845016493"><ele>76.33333333333333</ele><time>2026-03-31T16:43:45Z</time></trkpt><trkpt lat="48.99615027981358" lon="2.4611453348447356"><ele>76.0</ele><time>2026-03-31T16:43:46Z</time></trkpt><trkpt lat="48.996031303254476" lon="2.4608667526625227"><ele>76.66666666666666</ele><time>2026-03-31T16:43:47Z</time></trkpt><trkpt lat="48.995926702441984" lon="2.4605850866467973"><ele>77.33333333333333</ele><time>2026-03-31T16:43:48Z</time></trkpt><trkpt lat="48.99583056372838" lon="2.460304861298482"><ele>78.0</ele><time>2026-03-31T16:43:49Z</time></trkpt><trkpt lat="48.99574059148907" lon="2.460008167943154"><ele>78.0</ele><time>2026-03-31T16:43:50Z</time></trkpt><trkpt lat="48.99565246518626" lon="2.4597232023043496"><ele>78.0</ele><time>2026-03-31T16:43:51Z</time></trkpt><trkpt lat="48.995562817888995" lon="2.4594320281847493"><ele>78.0</ele><time>2026-03-31T16:43:52Z</time></trkpt><trkpt lat="48.995477348492884" lon="2.4591620509164938"><ele>78.0</ele><time>2026-03-31T16:43:53Z</time></trkpt><trkpt lat="48.9953769067709" lon="2.4589101074579034"><ele>78.0</ele><time>2026-03-31T16:43:54Z</time></trkpt><trkpt lat="48.995291383141385" lon="2.458650000906031"><ele>78.0</ele><time>2026-03-31T16:43:55Z</time></trkpt><trkpt lat="48.99519550291063" lon="2.4583966354267597"><ele>78.0</ele><time>2026-03-31T16:43:56Z</time></trkpt><trkpt lat="48.995093742421794" lon="2.4581589386934457"><ele>78.0</ele><time>2026-03-31T16:43:57Z</time></trkpt><trkpt lat="48.99498576304817" lon="2.457923755998245"><ele>78.0</ele><time>2026-03-31T16:43:58Z</time></trkpt><trkpt lat="48.994873628198576" lon="2.4576924387516783"><ele>77.66666666666667</ele><time>2026-03-31T16:43:59Z</time></trkpt><trkpt lat="48.99475976124481" lon="2.457466691069279"><ele>77.33333333333334</ele><time>2026-03-31T16:44:00Z</time></trkpt><trkpt lat="48.99464500406637" lon="2.4572582592889605"><ele>77.0</ele><time>2026-03-31T16:44:01Z</time></trkpt><trkpt lat="48.99451823350099" lon="2.457072107313056"><ele>77.0</ele><time>2026-03-31T16:44:02Z</time></trkpt><trkpt lat="48.99439755250405" lon="2.4569054026567296"><ele>77.0</ele><time>2026-03-31T16:44:03Z</time></trkpt><trkpt lat="48.994268275363396" lon="2.4567225447201197"><ele>77.0</ele><time>2026-03-31T16:44:04Z</time></trkpt><trkpt lat="48.99415781045214" lon="2.456569267651461"><ele>77.0</ele><time>2026-03-31T16:44:05Z</time></trkpt><trkpt lat="48.99405239336047" lon="2.456413930433955"><ele>77.0</ele><time>2026-03-31T16:44:06Z</time></trkpt><trkpt lat="48.99394863987984" lon="2.45626736500154"><ele>77.0</ele><time>2026-03-31T16:44:07Z</time></trkpt><trkpt lat="48.99384944155092" lon="2.4561288701487127"><ele>77.0</ele><time>2026-03-31T16:44:08Z</time></trkpt><trkpt lat="48.99375500512959" lon="2.455995285515842"><ele>77.0</ele><time>2026-03-31T16:44:09Z</time></trkpt><trkpt lat="48.99366146684006" lon="2.4558742696534"><ele>77.0</ele><time>2026-03-31T16:44:10Z</time></trkpt><trkpt lat="48.99358101411263" lon="2.455754300137389"><ele>77.0</ele><time>2026-03-31T16:44:11Z</time></trkpt><trkpt lat="48.99351830207487" lon="2.4556544551728807"><ele>77.0</ele><time>2026-03-31T16:44:12Z</time></trkpt><trkpt lat="48.993460384222004" lon="2.4555798041779355"><ele>77.0</ele><time>2026-03-31T16:44:13Z</time></trkpt><trkpt lat="48.993378055846335" lon="2.4554623006364116"><ele>76.33333333333334</ele><time>2026-03-31T16:44:15Z</time></trkpt><trkpt lat="48.99331089225776" lon="2.4553578920561416"><ele>75.66666666666667</ele><time>2026-03-31T16:44:17Z</time></trkpt><trkpt lat="48.99326201111864" lon="2.4552956530847134"><ele>75.0</ele><time>2026-03-31T16:44:20Z</time></trkpt><trkpt lat="48.99321703309542" lon="2.455224723109045"><ele>74.33333333333333</ele><time>2026-03-31T16:44:38.999Z</time></trkpt><trkpt lat="48.99316418403546" lon="2.4551525736709805"><ele>73.66666666666666</ele><time>2026-03-31T16:44:48.999Z</time></trkpt><trkpt lat="48.99313306226433" lon="2.4550302890792977"><ele>73.0</ele><time>2026-03-31T16:44:53.999Z</time></trkpt><trkpt lat="48.99315342799321" lon="2.4548559472538884"><ele>73.0</ele><time>2026-03-31T16:44:55.999Z</time></trkpt><trkpt lat="48.99318001467343" lon="2.454750898152141"><ele>73.0</ele><time>2026-03-31T16:44:56.999Z</time></trkpt><trkpt lat="48.99322546305611" lon="2.454640833634647"><ele>73.0</ele><time>2026-03-31T16:44:57.999Z</time></trkpt><trkpt lat="48.9932867301461" lon="2.4545268429468785"><ele>73.0</ele><time>2026-03-31T16:44:58.999Z</time></trkpt><trkpt lat="48.993357462718066" lon="2.4543998192756136"><ele>73.0</ele><time>2026-03-31T16:44:59.999Z</time></trkpt><trkpt lat="48.9934279210946" lon="2.4542756953143448"><ele>73.0</ele><time>2026-03-31T16:45:00.999Z</time></trkpt><trkpt lat="48.99350801307047" lon="2.4541320606469696"><ele>73.0</ele><time>2026-03-31T16:45:01.999Z</time></trkpt><trkpt lat="48.99358530423309" lon="2.4539994976541846"><ele>73.0</ele><time>2026-03-31T16:45:02.999Z</time></trkpt><trkpt lat="48.993653626971344" lon="2.4538832064825664"><ele>73.0</ele><time>2026-03-31T16:45:03.999Z</time></trkpt><trkpt lat="48.99371485176029" lon="2.4537751742827822"><ele>73.0</ele><time>2026-03-31T16:45:04.999Z</time></trkpt><trkpt lat="48.99377687726809" lon="2.453665117770044"><ele>72.4</ele><time>2026-03-31T16:45:05.999Z</time></trkpt><trkpt lat="48.993846788728284" lon="2.4535460012070427"><ele>71.8</ele><time>2026-03-31T16:45:06.999Z</time></trkpt><trkpt lat="48.99391859653049" lon="2.45342560517699"><ele>71.2</ele><time>2026-03-31T16:45:07.999Z</time></trkpt><trkpt lat="48.99399053874612" lon="2.4533049943294936"><ele>70.6</ele><time>2026-03-31T16:45:08.999Z</time></trkpt><trkpt lat="48.99406354268343" lon="2.4531921879424945"><ele>70.0</ele><time>2026-03-31T16:45:09.999Z</time></trkpt><trkpt lat="48.99413881753502" lon="2.453077516384188"><ele>70.4</ele><time>2026-03-31T16:45:10.999Z</time></trkpt><trkpt lat="48.99421567123897" lon="2.4529579562356822"><ele>70.8</ele><time>2026-03-31T16:45:11.999Z</time></trkpt><trkpt lat="48.99429378553278" lon="2.4528424512927125"><ele>71.2</ele><time>2026-03-31T16:45:12.999Z</time></trkpt><trkpt lat="48.9943637687572" lon="2.4527288216679968"><ele>71.6</ele><time>2026-03-31T16:45:13.999Z</time></trkpt><trkpt lat="48.99442813750132" lon="2.452619072005007"><ele>72.0</ele><time>2026-03-31T16:45:14.999Z</time></trkpt><trkpt lat="48.99447842546959" lon="2.452523815877803"><ele>72.0</ele><time>2026-03-31T16:45:15.999Z</time></trkpt><trkpt lat="48.994543815918405" lon="2.4523950265874097"><ele>72.0</ele><time>2026-03-31T16:45:17.999Z</time></trkpt><trkpt lat="48.99458770882877" lon="2.45229140240293"><ele>72.0</ele><time>2026-03-31T16:45:19.998Z</time></trkpt><trkpt lat="48.99462083100515" lon="2.4522082369441356"><ele>72.0</ele><time>2026-03-31T16:45:24.998Z</time></trkpt><trkpt lat="48.99466877765053" lon="2.452093340369501"><ele>72.0</ele><time>2026-03-31T16:45:27.998Z</time></trkpt><trkpt lat="48.99475755479775" lon="2.4520113254831974"><ele>72.0</ele><time>2026-03-31T16:45:29.998Z</time></trkpt><trkpt lat="48.99483919025641" lon="2.4518667280304722"><ele>71.66666666666667</ele><time>2026-03-31T16:45:31.998Z</time></trkpt><trkpt lat="48.99484706826942" lon="2.451683447071869"><ele>71.33333333333333</ele><time>2026-03-31T16:45:33.998Z</time></trkpt><trkpt lat="48.99483445679258" lon="2.4515858422284644"><ele>71.0</ele><time>2026-03-31T16:45:34.998Z</time></trkpt><trkpt lat="48.99480945693898" lon="2.451488686401513"><ele>70.66666666666666</ele><time>2026-03-31T16:45:35.998Z</time></trkpt><trkpt lat="48.994842505484385" lon="2.4513539120091634"><ele>70.33333333333333</ele><time>2026-03-31T16:45:36.998Z</time></trkpt><trkpt lat="48.994864099315734" lon="2.45121025902241"><ele>70.0</ele><time>2026-03-31T16:45:37.998Z</time></trkpt><trkpt lat="48.99488654318643" lon="2.4510642977408126"><ele>69.75</ele><time>2026-03-31T16:45:38.998Z</time></trkpt><trkpt lat="48.994910192218676" lon="2.4508992764407274"><ele>69.5</ele><time>2026-03-31T16:45:39.998Z</time></trkpt><trkpt lat="48.99493298513214" lon="2.450723325703567"><ele>69.25</ele><time>2026-03-31T16:45:40.998Z</time></trkpt><trkpt lat="48.99495296699891" lon="2.45055154909283"><ele>69.0</ele><time>2026-03-31T16:45:41.998Z</time></trkpt><trkpt lat="48.994964027154026" lon="2.450377835982704"><ele>69.0</ele><time>2026-03-31T16:45:42.998Z</time></trkpt><trkpt lat="48.994971537869446" lon="2.450194646339309"><ele>69.0</ele><time>2026-03-31T16:45:44Z</time></trkpt><trkpt lat="48.994971736137124" lon="2.4500055957930917"><ele>69.0</ele><time>2026-03-31T16:45:45Z</time></trkpt><trkpt lat="48.9949660888801" lon="2.449815396919366"><ele>69.0</ele><time>2026-03-31T16:45:46Z</time></trkpt><trkpt lat="48.994955686815196" lon="2.449619317199407"><ele>69.0</ele><time>2026-03-31T16:45:47Z</time></trkpt><trkpt lat="48.99494198301264" lon="2.44941640846998"><ele>69.0</ele><time>2026-03-31T16:45:48Z</time></trkpt><trkpt lat="48.994920374112056" lon="2.449211407361557"><ele>69.0</ele><time>2026-03-31T16:45:49Z</time></trkpt><trkpt lat="48.99489499934377" lon="2.4490231321746987"><ele>69.0</ele><time>2026-03-31T16:45:50Z</time></trkpt><trkpt lat="48.9948691344461" lon="2.4488372373132195"><ele>69.5</ele><time>2026-03-31T16:45:51Z</time></trkpt><trkpt lat="48.99483998225619" lon="2.448652289313402"><ele>70.0</ele><time>2026-03-31T16:45:52Z</time></trkpt><trkpt lat="48.994808116818355" lon="2.4484636937557327"><ele>70.5</ele><time>2026-03-31T16:45:53Z</time></trkpt><trkpt lat="48.99477667691685" lon="2.448273356968861"><ele>71.0</ele><time>2026-03-31T16:45:54Z</time></trkpt><trkpt lat="48.994751350190086" lon="2.448085512867989"><ele>71.25</ele><time>2026-03-31T16:45:55Z</time></trkpt><trkpt lat="48.994723262474324" lon="2.4478984449364733"><ele>71.5</ele><time>2026-03-31T16:45:56Z</time></trkpt><trkpt lat="48.99469538206953" lon="2.447710858878229"><ele>71.75</ele><time>2026-03-31T16:45:57Z</time></trkpt><trkpt lat="48.99466724794573" lon="2.4475219229651954"><ele>72.0</ele><time>2026-03-31T16:45:58Z</time></trkpt><trkpt lat="48.994638448503494" lon="2.44733399470237"><ele>72.0</ele><time>2026-03-31T16:45:59Z</time></trkpt><trkpt lat="48.99460788571028" lon="2.447148674746514"><ele>72.0</ele><time>2026-03-31T16:46:00Z</time></trkpt><trkpt lat="48.9945789351546" lon="2.4469609296645483"><ele>72.0</ele><time>2026-03-31T16:46:01Z</time></trkpt><trkpt lat="48.99455182001586" lon="2.4467756232201667"><ele>72.0</ele><time>2026-03-31T16:46:02Z</time></trkpt><trkpt lat="48.99452207706865" lon="2.4465948641033943"><ele>72.25</ele><time>2026-03-31T16:46:03Z</time></trkpt><trkpt lat="48.994492368905206" lon="2.446414412196024"><ele>72.5</ele><time>2026-03-31T16:46:04Z</time></trkpt><trkpt lat="48.99446544090156" lon="2.446233690793357"><ele>72.75</ele><time>2026-03-31T16:46:05Z</time></trkpt><trkpt lat="48.99443354474378" lon="2.4460598137184633"><ele>73.0</ele><time>2026-03-31T16:46:06Z</time></trkpt><trkpt lat="48.99440088985905" lon="2.445887339189903"><ele>73.0</ele><time>2026-03-31T16:46:07Z</time></trkpt><trkpt lat="48.99437416819384" lon="2.4457232293118483"><ele>73.0</ele><time>2026-03-31T16:46:08Z</time></trkpt><trkpt lat="48.99435318180646" lon="2.4455633058791437"><ele>73.0</ele><time>2026-03-31T16:46:09Z</time></trkpt><trkpt lat="48.994334541513325" lon="2.445417651883312"><ele>73.0</ele><time>2026-03-31T16:46:10Z</time></trkpt><trkpt lat="48.9943079383661" lon="2.4452717832999324"><ele>73.0</ele><time>2026-03-31T16:46:11Z</time></trkpt><trkpt lat="48.994280439356935" lon="2.445121016874864"><ele>73.0</ele><time>2026-03-31T16:46:12Z</time></trkpt><trkpt lat="48.99425510995508" lon="2.444974207491619"><ele>73.0</ele><time>2026-03-31T16:46:13Z</time></trkpt><trkpt lat="48.99423062336087" lon="2.4448313640423702"><ele>73.0</ele><time>2026-03-31T16:46:14Z</time></trkpt><trkpt lat="48.994199781791146" lon="2.4446970922824773"><ele>73.0</ele><time>2026-03-31T16:46:15Z</time></trkpt><trkpt lat="48.994163078407276" lon="2.444564552046364"><ele>73.0</ele><time>2026-03-31T16:46:16Z</time></trkpt><trkpt lat="48.99412001537215" lon="2.444425850696486"><ele>72.8</ele><time>2026-03-31T16:46:17Z</time></trkpt><trkpt lat="48.994073708222196" lon="2.4442875340721457"><ele>72.6</ele><time>2026-03-31T16:46:18Z</time></trkpt><trkpt lat="48.99402987690496" lon="2.4441574962416555"><ele>72.4</ele><time>2026-03-31T16:46:19Z</time></trkpt><trkpt lat="48.99398370742046" lon="2.4440330261490826"><ele>72.2</ele><time>2026-03-31T16:46:20Z</time></trkpt><trkpt lat="48.99393029091345" lon="2.4439130786267187"><ele>72.0</ele><time>2026-03-31T16:46:21Z</time></trkpt><trkpt lat="48.993875635447424" lon="2.443795673149544"><ele>72.0</ele><time>2026-03-31T16:46:22Z</time></trkpt><trkpt lat="48.9938214585368" lon="2.443682863676621"><ele>72.0</ele><time>2026-03-31T16:46:23Z</time></trkpt><trkpt lat="48.99376526720616" lon="2.4435742548834427"><ele>72.0</ele><time>2026-03-31T16:46:24Z</time></trkpt><trkpt lat="48.99370978719743" lon="2.4434704259018583"><ele>72.0</ele><time>2026-03-31T16:46:25Z</time></trkpt><trkpt lat="48.993653110129465" lon="2.443369524668328"><ele>72.0</ele><time>2026-03-31T16:46:26Z</time></trkpt><trkpt lat="48.99359802312488" lon="2.4432691603793697"><ele>72.0</ele><time>2026-03-31T16:46:27Z</time></trkpt><trkpt lat="48.99354177596849" lon="2.443178729755083"><ele>72.0</ele><time>2026-03-31T16:46:28Z</time></trkpt><trkpt lat="48.993483820050145" lon="2.443087483141764"><ele>72.0</ele><time>2026-03-31T16:46:28.999Z</time></trkpt><trkpt lat="48.99342974772647" lon="2.442996397916328"><ele>72.0</ele><time>2026-03-31T16:46:29.999Z</time></trkpt><trkpt lat="48.993383270094725" lon="2.4429153066518223"><ele>72.0</ele><time>2026-03-31T16:46:30.999Z</time></trkpt><trkpt lat="48.993338707852025" lon="2.4428264165860645"><ele>72.0</ele><time>2026-03-31T16:46:31.999Z</time></trkpt><trkpt lat="48.99330598038648" lon="2.4427155195273587"><ele>72.0</ele><time>2026-03-31T16:46:32.999Z</time></trkpt><trkpt lat="48.99327544323751" lon="2.4426072739592937"><ele>72.16666666666667</ele><time>2026-03-31T16:46:33.999Z</time></trkpt><trkpt lat="48.99322768769205" lon="2.442528204429992"><ele>72.33333333333333</ele><time>2026-03-31T16:46:34.999Z</time></trkpt><trkpt lat="48.993178038764455" lon="2.4424356878927758"><ele>72.5</ele><time>2026-03-31T16:46:35.999Z</time></trkpt><trkpt lat="48.993066757020344" lon="2.4424274219838495"><ele>72.66666666666666</ele><time>2026-03-31T16:46:36.999Z</time></trkpt><trkpt lat="48.99298454568047" lon="2.4423686277084946"><ele>72.83333333333333</ele><time>2026-03-31T16:46:37.999Z</time></trkpt><trkpt lat="48.992914904582264" lon="2.4422773303523893"><ele>73.0</ele><time>2026-03-31T16:46:38.999Z</time></trkpt><trkpt lat="48.992840631238515" lon="2.4421732556218254"><ele>72.0</ele><time>2026-03-31T16:46:39.999Z</time></trkpt><trkpt lat="48.99275265347075" lon="2.442060382239215"><ele>71.0</ele><time>2026-03-31T16:46:40.999Z</time></trkpt><trkpt lat="48.992662625102355" lon="2.44194146588509"><ele>70.0</ele><time>2026-03-31T16:46:41.999Z</time></trkpt><trkpt lat="48.992573065357284" lon="2.441831007630374"><ele>69.0</ele><time>2026-03-31T16:46:42.999Z</time></trkpt><trkpt lat="48.99248198474732" lon="2.44171941811197"><ele>69.0</ele><time>2026-03-31T16:46:43.999Z</time></trkpt><trkpt lat="48.99240141854625" lon="2.441597819250786"><ele>69.0</ele><time>2026-03-31T16:46:44.999Z</time></trkpt><trkpt lat="48.99233045688139" lon="2.4414726674225204"><ele>69.0</ele><time>2026-03-31T16:46:45.999Z</time></trkpt><trkpt lat="48.99226043722186" lon="2.4413411045802498"><ele>69.0</ele><time>2026-03-31T16:46:46.999Z</time></trkpt><trkpt lat="48.99221217458848" lon="2.4411816030898135"><ele>69.0</ele><time>2026-03-31T16:46:47.999Z</time></trkpt><trkpt lat="48.99214594629666" lon="2.4410338037480126"><ele>68.8</ele><time>2026-03-31T16:46:48.999Z</time></trkpt><trkpt lat="48.99210955107523" lon="2.4408729884791485"><ele>68.60000000000001</ele><time>2026-03-31T16:46:49.999Z</time></trkpt><trkpt lat="48.99208122875172" lon="2.44072144156669"><ele>68.4</ele><time>2026-03-31T16:46:50.999Z</time></trkpt><trkpt lat="48.99206277616828" lon="2.44057356805581"><ele>68.2</ele><time>2026-03-31T16:46:51.999Z</time></trkpt><trkpt lat="48.99205305853806" lon="2.440434224523985"><ele>68.0</ele><time>2026-03-31T16:46:52.999Z</time></trkpt><trkpt lat="48.99204917160393" lon="2.440298004852311"><ele>67.4</ele><time>2026-03-31T16:46:53.999Z</time></trkpt><trkpt lat="48.992046666541256" lon="2.4401661378466595"><ele>66.8</ele><time>2026-03-31T16:46:54.999Z</time></trkpt><trkpt lat="48.9920478716441" lon="2.4400299263114382"><ele>66.2</ele><time>2026-03-31T16:46:55.999Z</time></trkpt><trkpt lat="48.99204107637171" lon="2.4398935767830916"><ele>65.6</ele><time>2026-03-31T16:46:56.999Z</time></trkpt><trkpt lat="48.99202216408289" lon="2.4397461005576035"><ele>65.0</ele><time>2026-03-31T16:46:57.999Z</time></trkpt><trkpt lat="48.99199819104482" lon="2.4395808047796987"><ele>64.25</ele><time>2026-03-31T16:46:58.999Z</time></trkpt><trkpt lat="48.99196767250945" lon="2.439409134635463"><ele>63.5</ele><time>2026-03-31T16:46:59.999Z</time></trkpt><trkpt lat="48.99192341757305" lon="2.439241174820134"><ele>62.75</ele><time>2026-03-31T16:47:00.999Z</time></trkpt><trkpt lat="48.9918641624925" lon="2.4390817370011155"><ele>62.0</ele><time>2026-03-31T16:47:01.999Z</time></trkpt><trkpt lat="48.991795952718604" lon="2.4389311395974547"><ele>61.25</ele><time>2026-03-31T16:47:02.999Z</time></trkpt><trkpt lat="48.991714142571624" lon="2.4387882290868736"><ele>60.5</ele><time>2026-03-31T16:47:03.999Z</time></trkpt><trkpt lat="48.991621444724146" lon="2.4386566630733046"><ele>59.75</ele><time>2026-03-31T16:47:04.999Z</time></trkpt><trkpt lat="48.99151050472641" lon="2.4385062833514395"><ele>59.0</ele><time>2026-03-31T16:47:05.999Z</time></trkpt><trkpt lat="48.99138535137016" lon="2.4383680956806493"><ele>59.0</ele><time>2026-03-31T16:47:06.999Z</time></trkpt><trkpt lat="48.991260596548905" lon="2.43823070320781"><ele>59.0</ele><time>2026-03-31T16:47:07.999Z</time></trkpt><trkpt lat="48.99113621074243" lon="2.4380849268728033"><ele>59.0</ele><time>2026-03-31T16:47:08.999Z</time></trkpt><trkpt lat="48.991031177198266" lon="2.4379396565564697"><ele>58.75</ele><time>2026-03-31T16:47:09.999Z</time></trkpt><trkpt lat="48.990933313270055" lon="2.437789328229124"><ele>58.5</ele><time>2026-03-31T16:47:10.999Z</time></trkpt><trkpt lat="48.990836609904356" lon="2.437612203800317"><ele>58.25</ele><time>2026-03-31T16:47:11.999Z</time></trkpt><trkpt lat="48.99076378851477" lon="2.437500035306734"><ele>58.0</ele><time>2026-03-31T16:47:13.999Z</time></trkpt><trkpt lat="48.990685365007565" lon="2.437344354164558"><ele>58.0</ele><time>2026-03-31T16:47:14.999Z</time></trkpt><trkpt lat="48.99061646624475" lon="2.4371824402569033"><ele>58.0</ele><time>2026-03-31T16:47:15.999Z</time></trkpt><trkpt lat="48.99055269752176" lon="2.437013655158303"><ele>58.0</ele><time>2026-03-31T16:47:16.999Z</time></trkpt><trkpt lat="48.990517695172116" lon="2.4368216343094633"><ele>58.0</ele><time>2026-03-31T16:47:17.999Z</time></trkpt><trkpt lat="48.99046994218678" lon="2.436639768035322"><ele>58.4</ele><time>2026-03-31T16:47:18.999Z</time></trkpt><trkpt lat="48.99042989679625" lon="2.436448368801383"><ele>58.8</ele><time>2026-03-31T16:47:19.999Z</time></trkpt><trkpt lat="48.99040376038868" lon="2.436273495305798"><ele>59.2</ele><time>2026-03-31T16:47:20.999Z</time></trkpt><trkpt lat="48.99038816745838" lon="2.4361205809150985"><ele>59.6</ele><time>2026-03-31T16:47:21.999Z</time></trkpt><trkpt lat="48.990381496981" lon="2.4359716868590873"><ele>60.0</ele><time>2026-03-31T16:47:22.999Z</time></trkpt><trkpt lat="48.990369801525006" lon="2.435816560850068"><ele>60.42857142857143</ele><time>2026-03-31T16:47:23.999Z</time></trkpt><trkpt lat="48.9903791913939" lon="2.4356817857815334"><ele>60.857142857142854</ele><time>2026-03-31T16:47:24.999Z</time></trkpt><trkpt lat="48.990385941890004" lon="2.435581732250143"><ele>61.285714285714285</ele><time>2026-03-31T16:47:25.998Z</time></trkpt><trkpt lat="48.99039932607912" lon="2.4354862209911228"><ele>61.714285714285715</ele><time>2026-03-31T16:47:26.998Z</time></trkpt><trkpt lat="48.99041791225656" lon="2.435387963359503"><ele>62.14285714285714</ele><time>2026-03-31T16:47:27.998Z</time></trkpt><trkpt lat="48.990439056995385" lon="2.435283002758763"><ele>62.57142857142857</ele><time>2026-03-31T16:47:28.998Z</time></trkpt><trkpt lat="48.990465332108144" lon="2.4351611800585578"><ele>63.0</ele><time>2026-03-31T16:47:29.998Z</time></trkpt><trkpt lat="48.9905169900221" lon="2.435037608750679"><ele>64.0</ele><time>2026-03-31T16:47:30.998Z</time></trkpt><trkpt lat="48.99054727005631" lon="2.4348910846235214"><ele>65.0</ele><time>2026-03-31T16:47:31.998Z</time></trkpt><trkpt lat="48.990623352396" lon="2.434757834786141"><ele>66.0</ele><time>2026-03-31T16:47:32.998Z</time></trkpt><trkpt lat="48.990701868502725" lon="2.434609369613829"><ele>67.0</ele><time>2026-03-31T16:47:33.998Z</time></trkpt><trkpt lat="48.99078912162103" lon="2.434427430811354"><ele>67.0</ele><time>2026-03-31T16:47:34.998Z</time></trkpt><trkpt lat="48.990883533164144" lon="2.4342845466102605"><ele>67.0</ele><time>2026-03-31T16:47:35.998Z</time></trkpt><trkpt lat="48.99097268250226" lon="2.43414094282389"><ele>67.0</ele><time>2026-03-31T16:47:36.998Z</time></trkpt><trkpt lat="48.99106295847099" lon="2.43399492354579"><ele>67.0</ele><time>2026-03-31T16:47:37.998Z</time></trkpt><trkpt lat="48.99114000630557" lon="2.433865329899686"><ele>67.2</ele><time>2026-03-31T16:47:38.998Z</time></trkpt><trkpt lat="48.991219716897795" lon="2.4337377931435262"><ele>67.4</ele><time>2026-03-31T16:47:39.998Z</time></trkpt><trkpt lat="48.99129478384342" lon="2.4336137342410487"><ele>67.6</ele><time>2026-03-31T16:47:40.998Z</time></trkpt><trkpt lat="48.99136617316752" lon="2.433494661579918"><ele>67.8</ele><time>2026-03-31T16:47:41.998Z</time></trkpt><trkpt lat="48.99143793993482" lon="2.4333823914192414"><ele>68.0</ele><time>2026-03-31T16:47:42.998Z</time></trkpt><trkpt lat="48.991496356036535" lon="2.4332882946450156"><ele>68.0</ele><time>2026-03-31T16:47:43.998Z</time></trkpt><trkpt lat="48.991539566489244" lon="2.4332181764852"><ele>68.0</ele><time>2026-03-31T16:47:44.998Z</time></trkpt><trkpt lat="48.99160530495348" lon="2.433139285431487"><ele>68.0</ele><time>2026-03-31T16:47:46.998Z</time></trkpt><trkpt lat="48.99150779385141" lon="2.432970616068753"><ele>68.0</ele><time>2026-03-31T16:47:50Z</time></trkpt><trkpt lat="48.99142972986645" lon="2.432862001869533"><ele>68.0</ele><time>2026-03-31T16:47:52Z</time></trkpt><trkpt lat="48.99138146159957" lon="2.43279766813731"><ele>68.14285714285714</ele><time>2026-03-31T16:47:54Z</time></trkpt><trkpt lat="48.99136192020978" lon="2.43270350676147"><ele>68.28571428571428</ele><time>2026-03-31T16:47:56Z</time></trkpt><trkpt lat="48.99137288141565" lon="2.432590684865731"><ele>68.42857142857143</ele><time>2026-03-31T16:48:00Z</time></trkpt><trkpt lat="48.99132590531265" lon="2.432479994305563"><ele>68.57142857142857</ele><time>2026-03-31T16:48:02Z</time></trkpt><trkpt lat="48.99141061626237" lon="2.4325093763758416"><ele>68.71428571428572</ele><time>2026-03-31T16:49:22.999Z</time></trkpt><trkpt lat="48.991418065012354" lon="2.432411900075378"><ele>68.85714285714286</ele><time>2026-03-31T16:50:00Z</time></trkpt><trkpt lat="48.99139782125708" lon="2.432312689419681"><ele>69.0</ele><time>2026-03-31T16:50:06Z</time></trkpt><trkpt lat="48.991388175424724" lon="2.4322054808956763"><ele>69.0</ele><time>2026-03-31T16:50:11Z</time></trkpt><trkpt lat="48.99134391960079" lon="2.432134079560991"><ele>72.0</ele><time>2026-03-31T16:50:17Z</time></trkpt><trkpt lat="48.99125836675892" lon="2.4320242894137225"><ele>72.0</ele><time>2026-03-31T16:50:27.021Z</time></trkpt></trkseg></trk></gpx>